Wetterdaten: Dienstag, 06.06.2023
Datum Zeit Temp. Aussen Temp. o. S. Temp +5cm Feuchte Auss Luftdruck Regen Sonnenschein Regendauer Solar Windben Empfang
06.06.2023 00:00 18,7 C 17,8 C 14,4 C 70 % 1019,2 hPa 0,0 l/m 0 min 0 min 0 W/m 9,7 km/h (2 Bft) 100,00 %
06.06.2023 00:02 18,7 C 17,8 C 14,4 C 71 % 1019,3 hPa 0,0 l/m 0 min 0 min 0 W/m 9,7 km/h (2 Bft) 97,30 %
06.06.2023 00:04 18,7 C 17,8 C 13,9 C 71 % 1019,3 hPa 0,0 l/m 0 min 0 min 0 W/m 9,7 km/h (2 Bft) 100,00 %
06.06.2023 00:08 18,6 C 17,2 C 13,9 C 71 % 1019,3 hPa 0,0 l/m 0 min 0 min 0 W/m 9,7 km/h (2 Bft) 100,00 %
06.06.2023 00:10 18,5 C 17,8 C 13,9 C 72 % 1019,3 hPa 0,0 l/m 0 min 0 min 0 W/m 9,7 km/h (2 Bft) 100,00 %
06.06.2023 00:12 18,5 C 17,2 C 13,9 C 72 % 1019,3 hPa 0,0 l/m 0 min 0 min 0 W/m 9,7 km/h (2 Bft) 97,87 %
06.06.2023 00:14 18,5 C 17,2 C 13,9 C 72 % 1019,3 hPa 0,0 l/m 0 min 0 min 0 W/m 6,4 km/h (2 Bft) 100,00 %
06.06.2023 00:16 18,4 C 17,2 C 13,9 C 72 % 1019,3 hPa 0,0 l/m 0 min 0 min 0 W/m 6,4 km/h (2 Bft) 97,83 %
06.06.2023 00:18 18,4 C 17,2 C 13,9 C 72 % 1019,4 hPa 0,0 l/m 0 min 0 min 0 W/m 9,7 km/h (2 Bft) 97,87 %
06.06.2023 00:20 18,3 C 17,2 C 13,9 C 73 % 1019,4 hPa 0,0 l/m 0 min 0 min 0 W/m 9,7 km/h (2 Bft) 100,00 %
06.06.2023 00:22 18,3 C 17,2 C 13,9 C 73 % 1019,4 hPa 0,0 l/m 0 min 0 min 0 W/m 6,4 km/h (2 Bft) 100,00 %
06.06.2023 00:24 18,3 C 17,2 C 13,9 C 73 % 1019,4 hPa 0,0 l/m 0 min 0 min 0 W/m 6,4 km/h (2 Bft) 100,00 %
06.06.2023 00:26 18,2 C 17,2 C 13,9 C 73 % 1019,4 hPa 0,0 l/m 0 min 0 min 0 W/m 6,4 km/h (2 Bft) 97,87 %
06.06.2023 00:28 18,2 C 17,2 C 13,9 C 73 % 1019,5 hPa 0,0 l/m 0 min 0 min 0 W/m 12,9 km/h (3 Bft) 97,87 %
06.06.2023 00:30 18,1 C 17,2 C 13,9 C 74 % 1019,4 hPa 0,0 l/m 0 min 0 min 0 W/m 6,4 km/h (2 Bft) 100,00 %
06.06.2023 00:32 18,1 C 17,2 C 13,3 C 74 % 1019,5 hPa 0,0 l/m 0 min 0 min 0 W/m 3,2 km/h (1 Bft) 100,00 %
06.06.2023 00:34 18,1 C 16,7 C 13,3 C 74 % 1019,5 hPa 0,0 l/m 0 min 0 min 0 W/m 6,4 km/h (2 Bft) 100,00 %
06.06.2023 00:36 18,0 C 16,7 C 13,3 C 75 % 1019,5 hPa 0,0 l/m 0 min 0 min 0 W/m 6,4 km/h (2 Bft) 100,00 %
06.06.2023 00:38 17,9 C 16,7 C 13,3 C 75 % 1019,4 hPa 0,0 l/m 0 min 0 min 0 W/m 12,9 km/h (3 Bft) 100,00 %
06.06.2023 00:40 17,9 C 16,7 C 13,3 C 75 % 1019,4 hPa 0,0 l/m 0 min 0 min 0 W/m 6,4 km/h (2 Bft) 100,00 %
06.06.2023 00:42 17,9 C 16,7 C 13,3 C 75 % 1019,5 hPa 0,0 l/m 0 min 0 min 0 W/m 6,4 km/h (2 Bft) 97,83 %
06.06.2023 00:44 17,8 C 16,7 C 13,3 C 75 % 1019,4 hPa 0,0 l/m 0 min 0 min 0 W/m 16,1 km/h (3 Bft) 100,00 %
06.06.2023 00:46 17,8 C 16,7 C 13,3 C 75 % 1019,5 hPa 0,0 l/m 0 min 0 min 0 W/m 6,4 km/h (2 Bft) 100,00 %
06.06.2023 00:48 17,7 C 16,7 C 13,3 C 76 % 1019,5 hPa 0,0 l/m 0 min 0 min 0 W/m 6,4 km/h (2 Bft) 100,00 %
06.06.2023 00:50 17,7 C 16,7 C 13,3 C 76 % 1019,5 hPa 0,0 l/m 0 min 0 min 0 W/m 12,9 km/h (3 Bft) 100,00 %
06.06.2023 00:52 17,6 C 16,7 C 13,3 C 76 % 1019,4 hPa 0,0 l/m 0 min 0 min 0 W/m 9,7 km/h (2 Bft) 100,00 %
06.06.2023 00:54 17,6 C 16,7 C 13,3 C 76 % 1019,4 hPa 0,0 l/m 0 min 0 min 0 W/m 9,7 km/h (2 Bft) 100,00 %
06.06.2023 00:56 17,6 C 16,7 C 13,3 C 76 % 1019,5 hPa 0,0 l/m 0 min 0 min 0 W/m 6,4 km/h (2 Bft) 100,00 %
06.06.2023 00:58 17,5 C 16,7 C 13,3 C 76 % 1019,5 hPa 0,0 l/m 0 min 0 min 0 W/m 6,4 km/h (2 Bft) 100,00 %
06.06.2023 01:00 17,5 C 16,7 C 12,8 C 77 % 1019,5 hPa 0,0 l/m 0 min 0 min 0 W/m 6,4 km/h (2 Bft) 100,00 %
06.06.2023 01:02 17,4 C 16,7 C 13,3 C 77 % 1019,5 hPa 0,0 l/m 0 min 0 min 0 W/m 9,7 km/h (2 Bft) 100,00 %
06.06.2023 01:04 17,4 C 16,7 C 12,8 C 77 % 1019,5 hPa 0,0 l/m 0 min 0 min 0 W/m 9,7 km/h (2 Bft) 100,00 %
06.06.2023 01:06 17,4 C 16,1 C 12,8 C 77 % 1019,5 hPa 0,0 l/m 0 min 0 min 0 W/m 16,1 km/h (3 Bft) 100,00 %
06.06.2023 01:08 17,3 C 16,1 C 12,8 C 77 % 1019,5 hPa 0,0 l/m 0 min 0 min 0 W/m 6,4 km/h (2 Bft) 92,68 %
06.06.2023 01:10 17,3 C 16,1 C 12,8 C 77 % 1019,5 hPa 0,0 l/m 0 min 0 min 0 W/m 6,4 km/h (2 Bft) 100,00 %
06.06.2023 01:12 17,3 C 16,1 C 12,8 C 77 % 1019,4 hPa 0,0 l/m 0 min 0 min 0 W/m 6,4 km/h (2 Bft) 100,00 %
06.06.2023 01:14 17,2 C 16,1 C 12,8 C 78 % 1019,4 hPa 0,0 l/m 0 min 0 min 0 W/m 9,7 km/h (2 Bft) 97,87 %
06.06.2023 01:16 17,2 C 16,1 C 12,8 C 77 % 1019,4 hPa 0,0 l/m 0 min 0 min 0 W/m 9,7 km/h (2 Bft) 95,12 %
06.06.2023 01:18 17,2 C 16,1 C 12,8 C 78 % 1019,5 hPa 0,0 l/m 0 min 0 min 0 W/m 9,7 km/h (2 Bft) 96,30 %
06.06.2023 01:20 17,1 C 16,1 C 12,8 C 78 % 1019,5 hPa 0,0 l/m 0 min 0 min 0 W/m 12,9 km/h (3 Bft) 95,74 %
06.06.2023 01:22 17,1 C 16,1 C 12,8 C 78 % 1019,5 hPa 0,0 l/m 0 min 0 min 0 W/m 6,4 km/h (2 Bft) 95,74 %
06.06.2023 01:24 17,1 C 16,1 C 12,8 C 78 % 1019,5 hPa 0,0 l/m 0 min 0 min 0 W/m 3,2 km/h (1 Bft) 95,74 %
06.06.2023 01:26 17,1 C 16,1 C 12,8 C 78 % 1019,4 hPa 0,0 l/m 0 min 0 min 0 W/m 6,4 km/h (2 Bft) 95,65 %
06.06.2023 01:28 17,0 C 16,1 C 12,8 C 78 % 1019,5 hPa 0,0 l/m 0 min 0 min 0 W/m 6,4 km/h (2 Bft) 95,74 %
06.06.2023 01:30 16,9 C 16,1 C 12,8 C 78 % 1019,5 hPa 0,0 l/m 0 min 0 min 0 W/m 22,5 km/h (4 Bft) 95,74 %
06.06.2023 01:32 16,9 C 16,1 C 12,8 C 79 % 1019,5 hPa 0,0 l/m 0 min 0 min 0 W/m 3,2 km/h (1 Bft) 94,00 %
06.06.2023 01:34 16,9 C 16,1 C 12,8 C 79 % 1019,5 hPa 0,0 l/m 0 min 0 min 0 W/m 6,4 km/h (2 Bft) 95,74 %
06.06.2023 01:36 16,8 C 16,1 C 12,8 C 79 % 1019,5 hPa 0,0 l/m 0 min 0 min 0 W/m 6,4 km/h (2 Bft) 93,62 %
06.06.2023 01:38 16,8 C 16,1 C 12,2 C 79 % 1019,5 hPa 0,0 l/m 0 min 0 min 0 W/m 12,9 km/h (3 Bft) 95,74 %
06.06.2023 01:40 16,8 C 15,6 C 12,2 C 79 % 1019,5 hPa 0,0 l/m 0 min 0 min 0 W/m 9,7 km/h (2 Bft) 95,65 %
06.06.2023 01:42 16,8 C 15,6 C 12,2 C 79 % 1019,6 hPa 0,0 l/m 0 min 0 min 0 W/m 3,2 km/h (1 Bft) 95,74 %
06.06.2023 01:44 16,7 C 15,6 C 12,2 C 79 % 1019,5 hPa 0,0 l/m 0 min 0 min 0 W/m 12,9 km/h (3 Bft) 95,74 %
06.06.2023 01:46 16,7 C 15,6 C 12,2 C 79 % 1019,5 hPa 0,0 l/m 0 min 0 min 0 W/m 6,4 km/h (2 Bft) 93,62 %
06.06.2023 01:48 16,7 C 15,6 C 12,2 C 79 % 1019,5 hPa 0,0 l/m 0 min 0 min 0 W/m 6,4 km/h (2 Bft) 95,74 %
06.06.2023 01:50 16,7 C 15,6 C 12,2 C 79 % 1019,5 hPa 0,0 l/m 0 min 0 min 0 W/m 6,4 km/h (2 Bft) 95,74 %
06.06.2023 01:52 16,6 C 15,6 C 12,2 C 79 % 1019,5 hPa 0,0 l/m 0 min 0 min 0 W/m 6,4 km/h (2 Bft) 93,62 %
06.06.2023 01:54 16,6 C 15,6 C 12,2 C 80 % 1019,5 hPa 0,0 l/m 0 min 0 min 0 W/m 12,9 km/h (3 Bft) 95,74 %
06.06.2023 01:56 16,6 C 15,6 C 12,2 C 80 % 1019,5 hPa 0,0 l/m 0 min 0 min 0 W/m 3,2 km/h (1 Bft) 95,65 %
06.06.2023 01:58 16,5 C 15,6 C 12,2 C 80 % 1019,5 hPa 0,0 l/m 0 min 0 min 0 W/m 6,4 km/h (2 Bft) 91,49 %
06.06.2023 02:00 16,4 C 15,6 C 12,2 C 80 % 1019,4 hPa 0,0 l/m 0 min 0 min 0 W/m 6,4 km/h (2 Bft) 95,74 %
06.06.2023 02:02 16,4 C 15,6 C 12,2 C 80 % 1019,5 hPa 0,0 l/m 0 min 0 min 0 W/m 6,4 km/h (2 Bft) 95,74 %
06.06.2023 02:04 16,4 C 15,6 C 12,2 C 80 % 1019,5 hPa 0,0 l/m 0 min 0 min 0 W/m 12,9 km/h (3 Bft) 95,74 %
06.06.2023 02:06 16,3 C 15,6 C 12,2 C 80 % 1019,5 hPa 0,0 l/m 0 min 0 min 0 W/m 12,9 km/h (3 Bft) 97,37 %
06.06.2023 02:08 16,3 C 15,6 C 12,2 C 80 % 1019,5 hPa 0,0 l/m 0 min 0 min 0 W/m 12,9 km/h (3 Bft) 95,74 %
06.06.2023 02:10 16,3 C 15,6 C 11,7 C 81 % 1019,4 hPa 0,0 l/m 0 min 0 min 0 W/m 9,7 km/h (2 Bft) 95,74 %
06.06.2023 02:15 16,2 C 15,0 C 12,2 C 81 % 1019,5 hPa 0,0 l/m 0 min 0 min 0 W/m 6,4 km/h (2 Bft) 74,56 %
06.06.2023 02:20 16,1 C 15,0 C 12,2 C 81 % 1019,5 hPa 0,0 l/m 0 min 0 min 0 W/m 12,9 km/h (3 Bft) 99,12 %
06.06.2023 02:25 16,0 C 15,0 C 11,7 C 81 % 1019,5 hPa 0,0 l/m 0 min 0 min 0 W/m 9,7 km/h (2 Bft) 100,00 %
06.06.2023 02:30 15,9 C 15,0 C 11,7 C 82 % 1019,4 hPa 0,0 l/m 0 min 0 min 0 W/m 6,4 km/h (2 Bft) 100,00 %
06.06.2023 02:35 15,9 C 15,0 C 11,7 C 82 % 1019,5 hPa 0,0 l/m 0 min 0 min 0 W/m 3,2 km/h (1 Bft) 100,00 %
06.06.2023 02:40 15,8 C 15,0 C 11,1 C 82 % 1019,5 hPa 0,0 l/m 0 min 0 min 0 W/m 9,7 km/h (2 Bft) 99,12 %
06.06.2023 02:45 15,7 C 14,4 C 11,1 C 82 % 1019,4 hPa 0,0 l/m 0 min 0 min 0 W/m 9,7 km/h (2 Bft) 100,00 %
06.06.2023 02:50 15,6 C 14,4 C 11,1 C 83 % 1019,4 hPa 0,0 l/m 0 min 0 min 0 W/m 12,9 km/h (3 Bft) 100,00 %
06.06.2023 02:55 15,4 C 14,4 C 11,1 C 83 % 1019,4 hPa 0,0 l/m 0 min 0 min 0 W/m 6,4 km/h (2 Bft) 100,00 %
06.06.2023 03:00 15,3 C 14,4 C 11,1 C 83 % 1019,4 hPa 0,0 l/m 0 min 0 min 0 W/m 6,4 km/h (2 Bft) 100,00 %
06.06.2023 03:05 15,3 C 14,4 C 11,1 C 84 % 1019,5 hPa 0,0 l/m 0 min 0 min 0 W/m 6,4 km/h (2 Bft) 98,25 %
06.06.2023 03:10 15,2 C 14,4 C 11,1 C 84 % 1019,4 hPa 0,0 l/m 0 min 0 min 0 W/m 12,9 km/h (3 Bft) 100,00 %
06.06.2023 03:15 15,1 C 14,4 C 10,6 C 84 % 1019,4 hPa 0,0 l/m 0 min 0 min 0 W/m 6,4 km/h (2 Bft) 100,00 %
06.06.2023 03:20 15,0 C 13,9 C 10,6 C 84 % 1019,5 hPa 0,0 l/m 0 min 0 min 0 W/m 6,4 km/h (2 Bft) 100,00 %
06.06.2023 03:25 14,9 C 13,9 C 10,6 C 84 % 1019,5 hPa 0,0 l/m 0 min 0 min 0 W/m 6,4 km/h (2 Bft) 99,12 %
06.06.2023 03:30 14,8 C 13,9 C 10,6 C 84 % 1019,4 hPa 0,0 l/m 0 min 0 min 0 W/m 6,4 km/h (2 Bft) 100,00 %
06.06.2023 03:35 14,8 C 13,9 C 10,6 C 85 % 1019,4 hPa 0,0 l/m 0 min 0 min 0 W/m 6,4 km/h (2 Bft) 100,00 %
06.06.2023 03:40 14,7 C 13,9 C 10,6 C 85 % 1019,5 hPa 0,0 l/m 0 min 0 min 0 W/m 9,7 km/h (2 Bft) 100,00 %
06.06.2023 03:45 14,6 C 13,9 C 10,6 C 85 % 1019,5 hPa 0,0 l/m 0 min 0 min 0 W/m 6,4 km/h (2 Bft) 100,00 %
06.06.2023 03:50 14,6 C 13,9 C 10,6 C 85 % 1019,5 hPa 0,0 l/m 0 min 0 min 0 W/m 6,4 km/h (2 Bft) 100,00 %
06.06.2023 03:55 14,5 C 13,9 C 10,6 C 85 % 1019,5 hPa 0,0 l/m 0 min 0 min 0 W/m 6,4 km/h (2 Bft) 100,00 %
06.06.2023 04:00 14,3 C 13,3 C 10,0 C 85 % 1019,4 hPa 0,0 l/m 0 min 0 min 0 W/m 9,7 km/h (2 Bft) 100,00 %
06.06.2023 04:05 14,3 C 13,3 C 10,0 C 86 % 1019,5 hPa 0,0 l/m 0 min 0 min 0 W/m 3,2 km/h (1 Bft) 92,98 %
06.06.2023 04:10 14,3 C 13,3 C 10,0 C 86 % 1019,5 hPa 0,0 l/m 0 min 0 min 0 W/m 6,4 km/h (2 Bft) 100,00 %
06.06.2023 04:15 14,2 C 13,3 C 10,0 C 86 % 1019,5 hPa 0,0 l/m 0 min 0 min 0 W/m 9,7 km/h (2 Bft) 99,12 %
06.06.2023 04:20 14,1 C 13,3 C 10,0 C 86 % 1019,4 hPa 0,0 l/m 0 min 0 min 0 W/m 16,1 km/h (3 Bft) 100,00 %
06.06.2023 04:25 13,9 C 12,8 C 9,4 C 86 % 1019,4 hPa 0,0 l/m 0 min 0 min 0 W/m 6,4 km/h (2 Bft) 99,12 %
06.06.2023 04:30 13,9 C 12,8 C 9,4 C 87 % 1019,5 hPa 0,0 l/m 0 min 0 min 0 W/m 9,7 km/h (2 Bft) 100,00 %
06.06.2023 04:35 13,8 C 12,8 C 9,4 C 87 % 1019,5 hPa 0,0 l/m 0 min 0 min 0 W/m 9,7 km/h (2 Bft) 100,00 %
06.06.2023 04:40 13,7 C 12,8 C 9,4 C 87 % 1019,4 hPa 0,0 l/m 0 min 0 min 0 W/m 6,4 km/h (2 Bft) 100,00 %
06.06.2023 04:45 13,6 C 12,8 C 9,4 C 87 % 1019,4 hPa 0,0 l/m 0 min 0 min 0 W/m 12,9 km/h (3 Bft) 100,00 %
06.06.2023 04:50 13,6 C 12,8 C 9,4 C 88 % 1019,5 hPa 0,0 l/m 0 min 0 min 0 W/m 9,7 km/h (2 Bft) 100,00 %
06.06.2023 04:55 13,5 C 12,8 C 9,4 C 87 % 1019,5 hPa 0,0 l/m 0 min 0 min 0 W/m 3,2 km/h (1 Bft) 100,00 %
06.06.2023 05:00 13,4 C 12,8 C 9,4 C 88 % 1019,5 hPa 0,0 l/m 0 min 0 min 0 W/m 6,4 km/h (2 Bft) 99,12 %
06.06.2023 05:05 13,4 C 12,8 C 9,4 C 88 % 1019,5 hPa 0,0 l/m 0 min 0 min 0 W/m 9,7 km/h (2 Bft) 99,12 %
06.06.2023 05:10 13,3 C 12,2 C 8,9 C 88 % 1019,6 hPa 0,0 l/m 0 min 0 min 0 W/m 6,4 km/h (2 Bft) 99,12 %
06.06.2023 05:15 13,2 C 12,2 C 8,9 C 88 % 1019,6 hPa 0,0 l/m 0 min 0 min 0 W/m 6,4 km/h (2 Bft) 99,12 %
06.06.2023 05:20 13,2 C 12,2 C 8,9 C 88 % 1019,6 hPa 0,0 l/m 0 min 0 min 0 W/m 6,4 km/h (2 Bft) 71,05 %
06.06.2023 05:25 13,2 C 12,2 C 8,9 C 88 % 1019,7 hPa 0,0 l/m 0 min 0 min 1 W/m 3,2 km/h (1 Bft) 100,00 %
06.06.2023 05:30 13,1 C 12,2 C 8,9 C 88 % 1019,7 hPa 0,0 l/m 0 min 0 min 5 W/m 3,2 km/h (1 Bft) 100,00 %
06.06.2023 05:35 13,1 C 12,2 C 8,9 C 88 % 1019,8 hPa 0,0 l/m 0 min 0 min 7 W/m 6,4 km/h (2 Bft) 100,00 %
06.06.2023 05:40 13,1 C 12,2 C 8,9 C 89 % 1019,7 hPa 0,0 l/m 0 min 0 min 9 W/m 6,4 km/h (2 Bft) 100,00 %
06.06.2023 05:45 13,0 C 12,2 C 8,9 C 89 % 1019,8 hPa 0,0 l/m 0 min 0 min 11 W/m 3,2 km/h (1 Bft) 100,00 %
06.06.2023 05:50 12,9 C 12,2 C 8,9 C 89 % 1019,6 hPa 0,0 l/m 0 min 0 min 12 W/m 6,4 km/h (2 Bft) 100,00 %
06.06.2023 05:55 12,9 C 12,2 C 8,9 C 89 % 1019,7 hPa 0,0 l/m 0 min 0 min 15 W/m 6,4 km/h (2 Bft) 100,00 %
06.06.2023 06:00 12,9 C 12,2 C 8,9 C 89 % 1019,6 hPa 0,0 l/m 0 min 0 min 17 W/m 3,2 km/h (1 Bft) 100,00 %
06.06.2023 06:05 12,9 C 12,2 C 8,9 C 89 % 1019,7 hPa 0,0 l/m 0 min 0 min 19 W/m 6,4 km/h (2 Bft) 100,00 %
06.06.2023 06:10 12,8 C 12,2 C 8,9 C 89 % 1019,7 hPa 0,0 l/m 0 min 0 min 20 W/m 6,4 km/h (2 Bft) 100,00 %
06.06.2023 06:15 12,8 C 12,2 C 8,9 C 89 % 1019,7 hPa 0,0 l/m 0 min 0 min 22 W/m 6,4 km/h (2 Bft) 100,00 %
06.06.2023 06:20 12,8 C 12,2 C 8,9 C 89 % 1019,6 hPa 0,0 l/m 0 min 0 min 24 W/m 6,4 km/h (2 Bft) 100,00 %
06.06.2023 06:25 12,8 C 12,2 C 8,9 C 89 % 1019,7 hPa 0,0 l/m 0 min 0 min 26 W/m 9,7 km/h (2 Bft) 100,00 %
06.06.2023 06:30 12,8 C 12,2 C 8,9 C 89 % 1019,7 hPa 0,0 l/m 0 min 0 min 27 W/m 9,7 km/h (2 Bft) 99,12 %
06.06.2023 06:35 12,8 C 12,2 C 8,9 C 89 % 1019,7 hPa 0,0 l/m 0 min 0 min 29 W/m 9,7 km/h (2 Bft) 96,49 %
06.06.2023 06:40 12,8 C 12,2 C 8,9 C 89 % 1019,8 hPa 0,0 l/m 0 min 0 min 31 W/m 3,2 km/h (1 Bft) 99,12 %
06.06.2023 06:45 12,8 C 12,2 C 8,9 C 89 % 1019,9 hPa 0,0 l/m 0 min 0 min 33 W/m 12,9 km/h (3 Bft) 97,37 %
06.06.2023 06:50 12,8 C 12,2 C 8,9 C 89 % 1019,8 hPa 0,0 l/m 0 min 0 min 34 W/m 3,2 km/h (1 Bft) 96,49 %
06.06.2023 06:55 12,8 C 12,2 C 8,9 C 89 % 1019,9 hPa 0,0 l/m 0 min 0 min 36 W/m 9,7 km/h (2 Bft) 100,00 %
06.06.2023 07:00 12,9 C 12,8 C 8,9 C 89 % 1019,9 hPa 0,0 l/m 0 min 0 min 38 W/m 3,2 km/h (1 Bft) 99,12 %
06.06.2023 07:05 12,9 C 12,8 C 8,9 C 89 % 1019,8 hPa 0,0 l/m 0 min 0 min 40 W/m 12,9 km/h (3 Bft) 100,00 %
06.06.2023 07:10 12,9 C 12,8 C 8,9 C 89 % 1019,9 hPa 0,0 l/m 0 min 0 min 42 W/m 12,9 km/h (3 Bft) 100,00 %
06.06.2023 07:15 13,1 C 12,8 C 9,4 C 89 % 1019,9 hPa 0,0 l/m 0 min 0 min 45 W/m 9,7 km/h (2 Bft) 100,00 %
06.06.2023 07:20 13,1 C 12,8 C 9,4 C 89 % 1019,9 hPa 0,0 l/m 0 min 0 min 47 W/m 6,4 km/h (2 Bft) 100,00 %
06.06.2023 07:25 13,2 C 12,8 C 9,4 C 89 % 1019,9 hPa 0,0 l/m 0 min 0 min 49 W/m 6,4 km/h (2 Bft) 100,00 %
06.06.2023 07:30 13,3 C 13,3 C 9,4 C 89 % 1019,9 hPa 0,0 l/m 0 min 0 min 52 W/m 3,2 km/h (1 Bft) 100,00 %
06.06.2023 07:35 13,4 C 13,3 C 10,0 C 89 % 1019,9 hPa 0,0 l/m 0 min 0 min 55 W/m 6,4 km/h (2 Bft) 100,00 %
06.06.2023 07:40 13,6 C 13,3 C 10,0 C 88 % 1019,9 hPa 0,0 l/m 0 min 0 min 104 W/m 9,7 km/h (2 Bft) 100,00 %
06.06.2023 07:45 13,6 C 13,3 C 10,0 C 88 % 1019,9 hPa 0,0 l/m 5 min 0 min 234 W/m 6,4 km/h (2 Bft) 100,00 %
06.06.2023 07:50 13,7 C 13,9 C 10,0 C 88 % 1019,9 hPa 0,0 l/m 0 min 0 min 174 W/m 6,4 km/h (2 Bft) 100,00 %
06.06.2023 07:55 13,9 C 13,9 C 10,0 C 87 % 1020,0 hPa 0,0 l/m 5 min 0 min 195 W/m 16,1 km/h (3 Bft) 100,00 %
06.06.2023 08:00 14,1 C 14,4 C 10,0 C 87 % 1019,9 hPa 0,0 l/m 5 min 0 min 279 W/m 9,7 km/h (2 Bft) 100,00 %
06.06.2023 08:05 14,3 C 16,1 C 10,6 C 86 % 1019,9 hPa 0,0 l/m 5 min 0 min 296 W/m 12,9 km/h (3 Bft) 100,00 %
06.06.2023 08:10 14,4 C 17,2 C 10,6 C 86 % 1019,9 hPa 0,0 l/m 5 min 0 min 289 W/m 16,1 km/h (3 Bft) 100,00 %
06.06.2023 08:15 14,8 C 18,9 C 10,6 C 85 % 1019,9 hPa 0,0 l/m 5 min 0 min 328 W/m 9,7 km/h (2 Bft) 100,00 %
06.06.2023 08:20 15,3 C 19,4 C 11,1 C 84 % 1019,9 hPa 0,0 l/m 5 min 0 min 341 W/m 9,7 km/h (2 Bft) 96,49 %
06.06.2023 08:25 15,5 C 18,3 C 11,7 C 82 % 1020,0 hPa 0,0 l/m 5 min 0 min 346 W/m 12,9 km/h (3 Bft) 98,25 %
06.06.2023 08:30 15,7 C 18,9 C 12,2 C 81 % 1019,9 hPa 0,0 l/m 5 min 0 min 364 W/m 12,9 km/h (3 Bft) 97,37 %
06.06.2023 08:35 16,1 C 20,0 C 12,8 C 80 % 1020,0 hPa 0,0 l/m 5 min 0 min 379 W/m 6,4 km/h (2 Bft) 98,25 %
06.06.2023 08:40 16,3 C 20,6 C 13,3 C 80 % 1020,0 hPa 0,0 l/m 5 min 0 min 395 W/m 9,7 km/h (2 Bft) 97,37 %
06.06.2023 08:45 16,7 C 21,1 C 13,9 C 79 % 1020,1 hPa 0,0 l/m 5 min 0 min 411 W/m 6,4 km/h (2 Bft) 97,37 %
06.06.2023 08:50 16,9 C 22,2 C 13,9 C 78 % 1020,1 hPa 0,0 l/m 5 min 0 min 425 W/m 9,7 km/h (2 Bft) 99,12 %
06.06.2023 08:55 17,3 C 22,8 C 14,4 C 77 % 1020,2 hPa 0,0 l/m 5 min 0 min 441 W/m 12,9 km/h (3 Bft) 99,12 %
06.06.2023 09:00 17,6 C 22,2 C 14,4 C 76 % 1020,2 hPa 0,0 l/m 5 min 0 min 456 W/m 6,4 km/h (2 Bft) 100,00 %
06.06.2023 09:05 17,6 C 22,8 C 15,0 C 76 % 1020,1 hPa 0,0 l/m 5 min 0 min 467 W/m 9,7 km/h (2 Bft) 100,00 %
06.06.2023 09:14 18,0 C 23,3 C 15,6 C 75 % 1020,1 hPa 0,0 l/m 5 min 0 min 496 W/m 6,4 km/h (2 Bft) 100,00 %
06.06.2023 09:16 18,0 C 22,8 C 15,6 C 74 % 1020,1 hPa 0,0 l/m 2 min 0 min 502 W/m 9,7 km/h (2 Bft) 97,92 %
06.06.2023 09:21 17,8 C 22,2 C 15,6 C 75 % 1020,1 hPa 0,0 l/m 5 min 0 min 511 W/m 16,1 km/h (3 Bft) 100,00 %
06.06.2023 09:22 17,8 C 22,8 C 15,6 C 75 % 1020,1 hPa 0,0 l/m 1 min 0 min 521 W/m 9,7 km/h (2 Bft) 95,65 %
06.06.2023 09:24 17,9 C 22,2 C 15,6 C 74 % 1020,2 hPa 0,0 l/m 2 min 0 min 522 W/m 6,4 km/h (2 Bft) 97,87 %
06.06.2023 09:26 17,9 C 22,2 C 15,6 C 74 % 1020,1 hPa 0,0 l/m 2 min 0 min 529 W/m 3,2 km/h (1 Bft) 100,00 %
06.06.2023 09:28 18,1 C 22,8 C 15,6 C 75 % 1020,1 hPa 0,0 l/m 2 min 0 min 535 W/m 16,1 km/h (3 Bft) 100,00 %
06.06.2023 09:30 18,2 C 23,3 C 15,6 C 75 % 1020,1 hPa 0,0 l/m 2 min 0 min 540 W/m 9,7 km/h (2 Bft) 97,87 %
06.06.2023 09:32 18,3 C 23,3 C 15,6 C 74 % 1020,1 hPa 0,0 l/m 2 min 0 min 544 W/m 6,4 km/h (2 Bft) 97,87 %
06.06.2023 09:34 18,5 C 23,3 C 15,6 C 73 % 1020,2 hPa 0,0 l/m 2 min 0 min 548 W/m 6,4 km/h (2 Bft) 97,83 %
06.06.2023 09:36 18,5 C 22,8 C 17,2 C 73 % 1020,1 hPa 0,0 l/m 2 min 0 min 554 W/m 3,2 km/h (1 Bft) 100,00 %
06.06.2023 09:38 18,6 C 22,8 C 17,2 C 73 % 1020,1 hPa 0,0 l/m 2 min 0 min 562 W/m 6,4 km/h (2 Bft) 100,00 %
06.06.2023 09:40 18,7 C 23,3 C 17,2 C 73 % 1020,1 hPa 0,0 l/m 2 min 0 min 566 W/m 6,4 km/h (2 Bft) 100,00 %
06.06.2023 09:42 18,7 C 23,9 C 17,2 C 73 % 1020,1 hPa 0,0 l/m 2 min 0 min 572 W/m 9,7 km/h (2 Bft) 100,00 %
06.06.2023 09:44 18,7 C 22,8 C 17,8 C 72 % 1020,0 hPa 0,0 l/m 2 min 0 min 575 W/m 6,4 km/h (2 Bft) 100,00 %
06.06.2023 09:46 18,6 C 22,8 C 17,8 C 73 % 1020,0 hPa 0,0 l/m 2 min 0 min 579 W/m 6,4 km/h (2 Bft) 97,87 %
06.06.2023 09:48 18,6 C 22,8 C 17,8 C 72 % 1020,0 hPa 0,0 l/m 2 min 0 min 586 W/m 9,7 km/h (2 Bft) 100,00 %
06.06.2023 09:50 18,5 C 22,2 C 18,3 C 72 % 1020,0 hPa 0,0 l/m 2 min 0 min 590 W/m 6,4 km/h (2 Bft) 100,00 %
06.06.2023 09:52 18,5 C 22,2 C 18,3 C 72 % 1020,0 hPa 0,0 l/m 2 min 0 min 594 W/m 16,1 km/h (3 Bft) 100,00 %
06.06.2023 09:54 18,4 C 21,7 C 18,3 C 72 % 1020,0 hPa 0,0 l/m 2 min 0 min 599 W/m 9,7 km/h (2 Bft) 100,00 %
06.06.2023 09:56 18,5 C 22,2 C 18,3 C 73 % 1020,0 hPa 0,0 l/m 2 min 0 min 607 W/m 3,2 km/h (1 Bft) 100,00 %
06.06.2023 09:58 18,6 C 22,8 C 18,9 C 73 % 1020,0 hPa 0,0 l/m 2 min 0 min 610 W/m 6,4 km/h (2 Bft) 100,00 %
06.06.2023 10:00 18,7 C 22,8 C 18,9 C 73 % 1020,0 hPa 0,0 l/m 2 min 0 min 614 W/m 6,4 km/h (2 Bft) 100,00 %
06.06.2023 10:02 18,7 C 22,8 C 18,9 C 72 % 1020,0 hPa 0,0 l/m 2 min 0 min 620 W/m 16,1 km/h (3 Bft) 100,00 %
06.06.2023 10:04 18,7 C 22,8 C 19,4 C 72 % 1020,0 hPa 0,0 l/m 2 min 0 min 627 W/m 6,4 km/h (2 Bft) 97,83 %
06.06.2023 10:06 18,7 C 22,8 C 19,4 C 73 % 1020,1 hPa 0,0 l/m 2 min 0 min 634 W/m 12,9 km/h (3 Bft) 100,00 %
06.06.2023 10:08 18,8 C 22,8 C 19,4 C 72 % 1020,0 hPa 0,0 l/m 2 min 0 min 638 W/m 12,9 km/h (3 Bft) 100,00 %
06.06.2023 10:10 19,0 C 23,3 C 18,9 C 73 % 1020,0 hPa 0,0 l/m 2 min 0 min 642 W/m 9,7 km/h (2 Bft) 100,00 %
06.06.2023 10:12 19,2 C 23,9 C 18,9 C 72 % 1020,1 hPa 0,0 l/m 2 min 0 min 647 W/m 9,7 km/h (2 Bft) 97,87 %
06.06.2023 10:14 19,2 C 23,9 C 19,4 C 71 % 1020,1 hPa 0,0 l/m 2 min 0 min 654 W/m 6,4 km/h (2 Bft) 97,87 %
06.06.2023 10:16 19,3 C 23,3 C 18,9 C 71 % 1020,1 hPa 0,0 l/m 2 min 0 min 659 W/m 16,1 km/h (3 Bft) 100,00 %
06.06.2023 10:18 19,3 C 22,8 C 19,4 C 71 % 1020,1 hPa 0,0 l/m 2 min 0 min 662 W/m 16,1 km/h (3 Bft) 97,87 %
06.06.2023 10:20 19,3 C 22,2 C 19,4 C 72 % 1020,1 hPa 0,0 l/m 2 min 0 min 668 W/m 6,4 km/h (2 Bft) 95,65 %
06.06.2023 10:22 19,3 C 22,2 C 19,4 C 72 % 1020,1 hPa 0,0 l/m 2 min 0 min 673 W/m 9,7 km/h (2 Bft) 95,74 %
06.06.2023 10:24 19,3 C 22,2 C 20,0 C 72 % 1020,0 hPa 0,0 l/m 2 min 0 min 680 W/m 3,2 km/h (1 Bft) 97,87 %
06.06.2023 10:26 19,3 C 21,7 C 19,4 C 72 % 1020,1 hPa 0,0 l/m 2 min 0 min 685 W/m 12,9 km/h (3 Bft) 97,87 %
06.06.2023 10:28 19,4 C 21,7 C 20,0 C 72 % 1020,0 hPa 0,0 l/m 2 min 0 min 690 W/m 6,4 km/h (2 Bft) 97,87 %
06.06.2023 10:30 19,4 C 21,1 C 20,6 C 72 % 1020,0 hPa 0,0 l/m 2 min 0 min 694 W/m 6,4 km/h (2 Bft) 95,74 %
06.06.2023 10:32 19,4 C 21,1 C 20,0 C 72 % 1020,0 hPa 0,0 l/m 2 min 0 min 702 W/m 16,1 km/h (3 Bft) 93,48 %
06.06.2023 10:34 19,5 C 21,1 C 20,0 C 71 % 1020,0 hPa 0,0 l/m 2 min 0 min 704 W/m 9,7 km/h (2 Bft) 95,74 %
06.06.2023 10:36 19,5 C 21,1 C 18,9 C 71 % 1020,0 hPa 0,0 l/m 2 min 0 min 709 W/m 16,1 km/h (3 Bft) 97,87 %
06.06.2023 10:38 19,5 C 21,1 C 18,9 C 71 % 1019,9 hPa 0,0 l/m 2 min 0 min 715 W/m 16,1 km/h (3 Bft) 100,00 %
06.06.2023 10:40 19,5 C 21,1 C 18,9 C 72 % 1020,0 hPa 0,0 l/m 2 min 0 min 719 W/m 6,4 km/h (2 Bft) 95,74 %
06.06.2023 10:42 19,5 C 21,1 C 18,9 C 72 % 1020,0 hPa 0,0 l/m 2 min 0 min 720 W/m 9,7 km/h (2 Bft) 97,87 %
06.06.2023 10:44 19,6 C 21,1 C 18,9 C 71 % 1020,0 hPa 0,0 l/m 2 min 0 min 726 W/m 12,9 km/h (3 Bft) 97,14 %
06.06.2023 10:46 19,6 C 21,1 C 18,9 C 71 % 1020,0 hPa 0,0 l/m 2 min 0 min 730 W/m 9,7 km/h (2 Bft) 98,00 %
06.06.2023 10:48 19,6 C 21,1 C 19,4 C 71 % 1020,0 hPa 0,0 l/m 2 min 0 min 732 W/m 12,9 km/h (3 Bft) 95,74 %
06.06.2023 10:50 19,7 C 21,7 C 18,9 C 72 % 1020,1 hPa 0,0 l/m 2 min 0 min 737 W/m 6,4 km/h (2 Bft) 93,62 %
06.06.2023 10:52 19,8 C 21,7 C 18,9 C 71 % 1020,0 hPa 0,0 l/m 2 min 0 min 741 W/m 6,4 km/h (2 Bft) 95,74 %
06.06.2023 10:54 19,9 C 22,2 C 18,3 C 71 % 1020,0 hPa 0,0 l/m 2 min 0 min 746 W/m 6,4 km/h (2 Bft) 95,74 %
06.06.2023 10:56 20,1 C 22,2 C 18,3 C 71 % 1020,0 hPa 0,0 l/m 2 min 0 min 750 W/m 9,7 km/h (2 Bft) 95,65 %
06.06.2023 10:58 20,1 C 22,2 C 18,3 C 70 % 1020,0 hPa 0,0 l/m 2 min 0 min 756 W/m 6,4 km/h (2 Bft) 93,62 %
06.06.2023 11:00 20,1 C 22,2 C 18,3 C 69 % 1020,1 hPa 0,0 l/m 2 min 0 min 757 W/m 9,7 km/h (2 Bft) 95,74 %
06.06.2023 11:02 20,1 C 22,2 C 18,3 C 70 % 1020,0 hPa 0,0 l/m 2 min 0 min 764 W/m 12,9 km/h (3 Bft) 95,74 %
06.06.2023 11:04 20,2 C 22,8 C 17,8 C 70 % 1020,1 hPa 0,0 l/m 2 min 0 min 765 W/m 9,7 km/h (2 Bft) 95,74 %
06.06.2023 11:06 20,3 C 22,8 C 18,3 C 70 % 1020,1 hPa 0,0 l/m 2 min 0 min 768 W/m 12,9 km/h (3 Bft) 96,61 %
06.06.2023 11:08 20,3 C 23,3 C 18,3 C 70 % 1020,0 hPa 0,0 l/m 2 min 0 min 769 W/m 12,9 km/h (3 Bft) 94,29 %
06.06.2023 11:10 20,5 C 23,3 C 18,9 C 70 % 1020,1 hPa 0,0 l/m 2 min 0 min 775 W/m 6,4 km/h (2 Bft) 95,74 %
06.06.2023 11:12 20,6 C 23,3 C 19,4 C 69 % 1020,1 hPa 0,0 l/m 2 min 0 min 780 W/m 6,4 km/h (2 Bft) 95,74 %
06.06.2023 11:14 20,7 C 23,9 C 18,9 C 70 % 1020,1 hPa 0,0 l/m 2 min 0 min 784 W/m 12,9 km/h (3 Bft) 93,62 %
06.06.2023 11:16 20,7 C 23,9 C 18,3 C 69 % 1020,1 hPa 0,0 l/m 2 min 0 min 789 W/m 12,9 km/h (3 Bft) 93,48 %
06.06.2023 11:18 20,8 C 23,9 C 18,9 C 70 % 1020,0 hPa 0,0 l/m 2 min 0 min 793 W/m 6,4 km/h (2 Bft) 95,74 %
06.06.2023 11:20 20,8 C 23,9 C 18,9 C 68 % 1020,1 hPa 0,0 l/m 2 min 0 min 794 W/m 16,1 km/h (3 Bft) 95,74 %
06.06.2023 11:22 20,9 C 23,9 C 19,4 C 69 % 1020,0 hPa 0,0 l/m 2 min 0 min 799 W/m 9,7 km/h (2 Bft) 95,74 %
06.06.2023 11:24 20,9 C 23,9 C 19,4 C 69 % 1020,1 hPa 0,0 l/m 2 min 0 min 803 W/m 16,1 km/h (3 Bft) 95,74 %
06.06.2023 11:26 20,7 C 23,3 C 19,4 C 68 % 1020,0 hPa 0,0 l/m 2 min 0 min 806 W/m 16,1 km/h (3 Bft) 95,74 %
06.06.2023 11:28 20,7 C 23,3 C 20,6 C 68 % 1020,0 hPa 0,0 l/m 2 min 0 min 808 W/m 9,7 km/h (2 Bft) 95,65 %
06.06.2023 11:30 20,8 C 23,9 C 21,1 C 69 % 1020,0 hPa 0,0 l/m 2 min 0 min 812 W/m 9,7 km/h (2 Bft) 93,62 %
06.06.2023 11:32 20,7 C 23,3 C 21,1 C 68 % 1019,9 hPa 0,0 l/m 2 min 0 min 815 W/m 9,7 km/h (2 Bft) 95,74 %
06.06.2023 11:34 20,8 C 23,9 C 21,7 C 70 % 1020,0 hPa 0,0 l/m 2 min 0 min 827 W/m 6,4 km/h (2 Bft) 97,87 %
06.06.2023 11:36 20,8 C 23,9 C 21,7 C 69 % 1019,9 hPa 0,0 l/m 2 min 0 min 823 W/m 16,1 km/h (3 Bft) 97,87 %
06.06.2023 11:38 20,9 C 23,9 C 21,7 C 69 % 1019,9 hPa 0,0 l/m 2 min 0 min 826 W/m 16,1 km/h (3 Bft) 95,74 %
06.06.2023 11:40 21,0 C 24,4 C 21,1 C 69 % 1019,9 hPa 0,0 l/m 2 min 0 min 832 W/m 16,1 km/h (3 Bft) 97,87 %
06.06.2023 11:42 21,2 C 25,0 C 21,7 C 68 % 1019,9 hPa 0,0 l/m 2 min 0 min 834 W/m 12,9 km/h (3 Bft) 97,83 %
06.06.2023 11:44 21,2 C 25,0 C 22,2 C 68 % 1019,9 hPa 0,0 l/m 2 min 0 min 837 W/m 12,9 km/h (3 Bft) 95,74 %
06.06.2023 11:46 21,3 C 25,0 C 22,8 C 67 % 1019,9 hPa 0,0 l/m 2 min 0 min 840 W/m 12,9 km/h (3 Bft) 97,87 %
06.06.2023 11:48 21,4 C 25,0 C 23,3 C 68 % 1019,9 hPa 0,0 l/m 2 min 0 min 841 W/m 6,4 km/h (2 Bft) 97,87 %
06.06.2023 11:50 21,5 C 25,6 C 23,3 C 68 % 1019,9 hPa 0,0 l/m 2 min 0 min 847 W/m 6,4 km/h (2 Bft) 95,74 %
06.06.2023 11:52 21,7 C 25,6 C 23,3 C 67 % 1019,9 hPa 0,0 l/m 2 min 0 min 848 W/m 12,9 km/h (3 Bft) 95,74 %
06.06.2023 11:54 21,8 C 25,6 C 22,8 C 68 % 1019,8 hPa 0,0 l/m 2 min 0 min 852 W/m 6,4 km/h (2 Bft) 97,87 %
06.06.2023 11:56 21,9 C 26,1 C 21,7 C 67 % 1019,8 hPa 0,0 l/m 2 min 0 min 854 W/m 25,7 km/h (4 Bft) 97,87 %
06.06.2023 11:58 22,1 C 26,1 C 22,2 C 66 % 1019,9 hPa 0,0 l/m 2 min 0 min 857 W/m 16,1 km/h (3 Bft) 97,83 %
06.06.2023 12:00 22,1 C 26,1 C 22,2 C 65 % 1019,9 hPa 0,0 l/m 2 min 0 min 858 W/m 9,7 km/h (2 Bft) 97,87 %
06.06.2023 12:02 22,1 C 26,1 C 22,8 C 65 % 1019,8 hPa 0,0 l/m 2 min 0 min 858 W/m 16,1 km/h (3 Bft) 97,87 %
06.06.2023 12:04 22,2 C 26,1 C 22,8 C 65 % 1019,8 hPa 0,0 l/m 2 min 0 min 862 W/m 12,9 km/h (3 Bft) 97,87 %
06.06.2023 12:07 22,3 C 26,7 C 23,9 C 65 % 1019,8 hPa 0,0 l/m 3 min 0 min 867 W/m 12,9 km/h (3 Bft) 97,87 %
06.06.2023 12:08 22,3 C 26,7 C 23,9 C 67 % 1019,8 hPa 0,0 l/m 1 min 0 min 867 W/m 12,9 km/h (3 Bft) 97,89 %
06.06.2023 12:12 22,7 C 27,2 C 24,4 C 64 % 1019,8 hPa 0,0 l/m 4 min 0 min 871 W/m 9,7 km/h (2 Bft) 100,00 %
06.06.2023 12:14 22,9 C 28,3 C 24,4 C 63 % 1019,8 hPa 0,0 l/m 2 min 0 min 873 W/m 12,9 km/h (3 Bft) 100,00 %
06.06.2023 12:16 23,1 C 27,2 C 24,4 C 64 % 1019,8 hPa 0,0 l/m 2 min 0 min 872 W/m 12,9 km/h (3 Bft) 95,74 %
06.06.2023 12:18 23,1 C 27,8 C 25,0 C 64 % 1019,8 hPa 0,0 l/m 2 min 0 min 875 W/m 6,4 km/h (2 Bft) 100,00 %
06.06.2023 12:20 23,2 C 27,8 C 26,1 C 64 % 1019,8 hPa 0,0 l/m 2 min 0 min 878 W/m 12,9 km/h (3 Bft) 97,87 %
06.06.2023 12:22 23,2 C 27,8 C 25,6 C 63 % 1019,8 hPa 0,0 l/m 2 min 0 min 880 W/m 12,9 km/h (3 Bft) 97,87 %
06.06.2023 12:24 23,2 C 27,8 C 26,7 C 62 % 1019,7 hPa 0,0 l/m 2 min 0 min 882 W/m 3,2 km/h (1 Bft) 97,87 %
06.06.2023 12:26 23,2 C 28,3 C 26,1 C 63 % 1019,7 hPa 0,0 l/m 2 min 0 min 887 W/m 6,4 km/h (2 Bft) 95,65 %
06.06.2023 12:28 23,3 C 28,3 C 26,7 C 63 % 1019,7 hPa 0,0 l/m 2 min 0 min 888 W/m 9,7 km/h (2 Bft) 97,87 %
06.06.2023 12:30 23,4 C 27,8 C 27,8 C 61 % 1019,7 hPa 0,0 l/m 2 min 0 min 885 W/m 16,1 km/h (3 Bft) 97,87 %
06.06.2023 12:32 23,3 C 27,8 C 27,8 C 63 % 1019,7 hPa 0,0 l/m 2 min 0 min 887 W/m 12,9 km/h (3 Bft) 97,87 %
06.06.2023 12:34 23,4 C 28,3 C 27,8 C 63 % 1019,7 hPa 0,0 l/m 2 min 0 min 891 W/m 9,7 km/h (2 Bft) 95,74 %
06.06.2023 12:36 23,6 C 28,3 C 27,8 C 62 % 1019,6 hPa 0,0 l/m 2 min 0 min 888 W/m 6,4 km/h (2 Bft) 51,16 %
06.06.2023 12:38 23,7 C 28,3 C 27,8 C 61 % 1019,6 hPa 0,0 l/m 2 min 0 min 892 W/m 9,7 km/h (2 Bft) 97,87 %
06.06.2023 12:40 23,8 C 28,9 C 27,8 C 61 % 1019,6 hPa 0,0 l/m 2 min 0 min 894 W/m 12,9 km/h (3 Bft) 97,83 %
06.06.2023 12:42 23,8 C 28,3 C 27,8 C 62 % 1019,6 hPa 0,0 l/m 2 min 0 min 896 W/m 9,7 km/h (2 Bft) 95,74 %
06.06.2023 12:44 23,9 C 28,3 C 28,3 C 62 % 1019,6 hPa 0,0 l/m 2 min 0 min 896 W/m 6,4 km/h (2 Bft) 95,74 %
06.06.2023 12:46 23,9 C 28,3 C 29,4 C 62 % 1019,5 hPa 0,0 l/m 2 min 0 min 897 W/m 16,1 km/h (3 Bft) 97,87 %
06.06.2023 12:48 23,8 C 27,8 C 28,9 C 60 % 1019,5 hPa 0,0 l/m 2 min 0 min 898 W/m 16,1 km/h (3 Bft) 97,87 %
06.06.2023 12:50 23,8 C 27,8 C 28,3 C 60 % 1019,6 hPa 0,0 l/m 2 min 0 min 904 W/m 6,4 km/h (2 Bft) 97,87 %
06.06.2023 12:52 23,8 C 28,3 C 27,8 C 60 % 1019,6 hPa 0,0 l/m 2 min 0 min 905 W/m 9,7 km/h (2 Bft) 93,62 %
06.06.2023 12:54 23,8 C 27,8 C 27,8 C 60 % 1019,6 hPa 0,0 l/m 2 min 0 min 908 W/m 12,9 km/h (3 Bft) 100,00 %
06.06.2023 12:56 23,9 C 28,3 C 27,2 C 60 % 1019,6 hPa 0,0 l/m 2 min 0 min 906 W/m 12,9 km/h (3 Bft) 100,00 %
06.06.2023 12:58 23,9 C 28,3 C 28,3 C 59 % 1019,5 hPa 0,0 l/m 2 min 0 min 910 W/m 12,9 km/h (3 Bft) 97,87 %
06.06.2023 13:00 23,9 C 28,3 C 28,9 C 60 % 1019,5 hPa 0,0 l/m 2 min 0 min 910 W/m 19,3 km/h (3 Bft) 100,00 %
06.06.2023 13:02 23,9 C 28,3 C 28,3 C 60 % 1019,5 hPa 0,0 l/m 2 min 0 min 909 W/m 16,1 km/h (3 Bft) 95,74 %
06.06.2023 13:04 24,0 C 28,9 C 27,8 C 60 % 1019,5 hPa 0,0 l/m 2 min 0 min 907 W/m 6,4 km/h (2 Bft) 100,00 %
06.06.2023 13:06 24,1 C 28,9 C 28,3 C 60 % 1019,5 hPa 0,0 l/m 2 min 0 min 908 W/m 9,7 km/h (2 Bft) 100,00 %
06.06.2023 13:08 24,2 C 28,9 C 27,8 C 60 % 1019,5 hPa 0,0 l/m 2 min 0 min 909 W/m 9,7 km/h (2 Bft) 100,00 %
06.06.2023 13:10 24,3 C 28,9 C 27,8 C 59 % 1019,5 hPa 0,0 l/m 2 min 0 min 911 W/m 12,9 km/h (3 Bft) 100,00 %
06.06.2023 13:12 24,4 C 28,9 C 28,3 C 59 % 1019,5 hPa 0,0 l/m 2 min 0 min 915 W/m 9,7 km/h (2 Bft) 100,00 %
06.06.2023 13:14 24,4 C 28,9 C 28,3 C 59 % 1019,5 hPa 0,0 l/m 2 min 0 min 920 W/m 12,9 km/h (3 Bft) 100,00 %
06.06.2023 13:16 24,5 C 29,4 C 27,8 C 58 % 1019,5 hPa 0,0 l/m 2 min 0 min 916 W/m 12,9 km/h (3 Bft) 100,00 %
06.06.2023 13:18 24,6 C 29,4 C 28,3 C 59 % 1019,5 hPa 0,0 l/m 2 min 0 min 917 W/m 12,9 km/h (3 Bft) 100,00 %
06.06.2023 13:20 24,6 C 29,4 C 28,3 C 58 % 1019,4 hPa 0,0 l/m 2 min 0 min 914 W/m 16,1 km/h (3 Bft) 100,00 %
06.06.2023 13:22 24,7 C 30,0 C 28,3 C 58 % 1019,4 hPa 0,0 l/m 2 min 0 min 917 W/m 9,7 km/h (2 Bft) 97,83 %
06.06.2023 13:24 24,6 C 28,9 C 28,3 C 57 % 1019,4 hPa 0,0 l/m 2 min 0 min 920 W/m 12,9 km/h (3 Bft) 97,87 %
06.06.2023 13:26 24,6 C 29,4 C 27,8 C 57 % 1019,4 hPa 0,0 l/m 2 min 0 min 922 W/m 19,3 km/h (3 Bft) 97,87 %
06.06.2023 13:28 24,7 C 30,0 C 27,8 C 58 % 1019,3 hPa 0,0 l/m 2 min 0 min 922 W/m 12,9 km/h (3 Bft) 97,87 %
06.06.2023 13:30 24,7 C 30,0 C 28,3 C 58 % 1019,3 hPa 0,0 l/m 2 min 0 min 921 W/m 12,9 km/h (3 Bft) 97,87 %
06.06.2023 13:32 24,8 C 30,0 C 28,3 C 58 % 1019,3 hPa 0,0 l/m 2 min 0 min 920 W/m 12,9 km/h (3 Bft) 95,74 %
06.06.2023 13:34 24,9 C 30,0 C 28,3 C 58 % 1019,3 hPa 0,0 l/m 2 min 0 min 922 W/m 9,7 km/h (2 Bft) 97,87 %
06.06.2023 13:36 25,0 C 30,6 C 28,3 C 57 % 1019,3 hPa 0,0 l/m 2 min 0 min 919 W/m 12,9 km/h (3 Bft) 97,83 %
06.06.2023 13:38 25,1 C 30,6 C 28,9 C 58 % 1019,3 hPa 0,0 l/m 2 min 0 min 916 W/m 9,7 km/h (2 Bft) 95,74 %
06.06.2023 13:40 25,1 C 30,6 C 29,4 C 57 % 1019,3 hPa 0,0 l/m 2 min 0 min 917 W/m 25,7 km/h (4 Bft) 97,87 %
06.06.2023 13:42 25,1 C 30,6 C 28,9 C 57 % 1019,3 hPa 0,0 l/m 2 min 0 min 922 W/m 6,4 km/h (2 Bft) 97,87 %
06.06.2023 13:44 25,1 C 31,1 C 30,0 C 57 % 1019,3 hPa 0,0 l/m 2 min 0 min 925 W/m 6,4 km/h (2 Bft) 97,87 %
06.06.2023 13:46 25,2 C 31,1 C 30,0 C 56 % 1019,3 hPa 0,0 l/m 2 min 0 min 928 W/m 19,3 km/h (3 Bft) 97,87 %
06.06.2023 13:48 25,2 C 31,1 C 28,3 C 55 % 1019,3 hPa 0,0 l/m 2 min 0 min 927 W/m 12,9 km/h (3 Bft) 95,74 %
06.06.2023 13:50 25,3 C 31,7 C 28,3 C 56 % 1019,2 hPa 0,0 l/m 2 min 0 min 925 W/m 12,9 km/h (3 Bft) 95,74 %
06.06.2023 13:52 25,4 C 31,7 C 27,8 C 55 % 1019,2 hPa 0,0 l/m 2 min 0 min 922 W/m 6,4 km/h (2 Bft) 97,83 %
06.06.2023 13:54 25,5 C 31,7 C 25,6 C 56 % 1019,2 hPa 0,0 l/m 2 min 0 min 921 W/m 12,9 km/h (3 Bft) 97,87 %
06.06.2023 13:56 25,6 C 32,2 C 25,6 C 56 % 1019,2 hPa 0,0 l/m 2 min 0 min 918 W/m 9,7 km/h (2 Bft) 93,62 %
06.06.2023 13:58 25,7 C 32,2 C 24,4 C 55 % 1019,2 hPa 0,0 l/m 2 min 0 min 924 W/m 12,9 km/h (3 Bft) 97,87 %
06.06.2023 14:00 25,8 C 32,2 C 24,4 C 55 % 1019,1 hPa 0,0 l/m 2 min 0 min 925 W/m 6,4 km/h (2 Bft) 97,87 %
06.06.2023 14:02 25,9 C 31,7 C 23,9 C 54 % 1019,1 hPa 0,0 l/m 2 min 0 min 922 W/m 16,1 km/h (3 Bft) 95,74 %
06.06.2023 14:04 26,0 C 32,2 C 23,3 C 53 % 1019,1 hPa 0,0 l/m 2 min 0 min 923 W/m 6,4 km/h (2 Bft) 100,00 %
06.06.2023 14:06 26,2 C 32,2 C 23,3 C 54 % 1019,1 hPa 0,0 l/m 2 min 0 min 919 W/m 16,1 km/h (3 Bft) 97,87 %
06.06.2023 14:08 26,2 C 32,2 C 22,8 C 54 % 1019,1 hPa 0,0 l/m 2 min 0 min 906 W/m 12,9 km/h (3 Bft) 93,62 %
06.06.2023 14:10 26,3 C 31,7 C 22,8 C 52 % 1019,1 hPa 0,0 l/m 2 min 0 min 900 W/m 16,1 km/h (3 Bft) 97,87 %
06.06.2023 14:12 26,2 C 32,2 C 22,8 C 52 % 1019,1 hPa 0,0 l/m 2 min 0 min 906 W/m 9,7 km/h (2 Bft) 100,00 %
06.06.2023 14:14 26,2 C 32,2 C 22,2 C 52 % 1019,1 hPa 0,0 l/m 2 min 0 min 912 W/m 16,1 km/h (3 Bft) 97,87 %
06.06.2023 14:16 26,2 C 31,7 C 22,2 C 52 % 1019,1 hPa 0,0 l/m 2 min 0 min 899 W/m 19,3 km/h (3 Bft) 100,00 %
06.06.2023 14:18 26,2 C 31,1 C 22,2 C 51 % 1019,1 hPa 0,0 l/m 2 min 0 min 889 W/m 12,9 km/h (3 Bft) 97,87 %
06.06.2023 14:20 26,2 C 31,1 C 22,2 C 50 % 1019,1 hPa 0,0 l/m 2 min 0 min 902 W/m 12,9 km/h (3 Bft) 100,00 %
06.06.2023 14:22 26,2 C 31,1 C 22,2 C 51 % 1019,1 hPa 0,0 l/m 2 min 0 min 908 W/m 6,4 km/h (2 Bft) 95,74 %
06.06.2023 14:24 26,2 C 31,7 C 22,2 C 52 % 1019,1 hPa 0,0 l/m 2 min 0 min 899 W/m 16,1 km/h (3 Bft) 97,87 %
06.06.2023 14:26 26,3 C 31,7 C 22,2 C 52 % 1019,1 hPa 0,0 l/m 2 min 0 min 887 W/m 12,9 km/h (3 Bft) 97,87 %
06.06.2023 14:28 26,4 C 32,2 C 22,2 C 53 % 1019,1 hPa 0,0 l/m 2 min 0 min 883 W/m 12,9 km/h (3 Bft) 97,87 %
06.06.2023 14:30 26,6 C 32,8 C 22,2 C 52 % 1019,0 hPa 0,0 l/m 2 min 0 min 889 W/m 6,4 km/h (2 Bft) 98,00 %
06.06.2023 14:32 26,7 C 32,8 C 22,2 C 50 % 1018,9 hPa 0,0 l/m 2 min 0 min 898 W/m 6,4 km/h (2 Bft) 94,29 %
06.06.2023 14:34 26,7 C 32,2 C 22,2 C 51 % 1018,9 hPa 0,0 l/m 2 min 0 min 907 W/m 6,4 km/h (2 Bft) 97,87 %
06.06.2023 14:36 26,7 C 31,1 C 22,2 C 51 % 1019,0 hPa 0,0 l/m 2 min 0 min 902 W/m 16,1 km/h (3 Bft) 97,87 %
06.06.2023 14:38 26,7 C 31,1 C 22,2 C 50 % 1019,0 hPa 0,0 l/m 2 min 0 min 899 W/m 12,9 km/h (3 Bft) 98,18 %
06.06.2023 14:40 26,6 C 31,1 C 22,2 C 49 % 1019,0 hPa 0,0 l/m 2 min 0 min 909 W/m 16,1 km/h (3 Bft) 95,74 %
06.06.2023 14:42 26,7 C 32,2 C 22,2 C 48 % 1018,9 hPa 0,0 l/m 2 min 0 min 901 W/m 6,4 km/h (2 Bft) 95,74 %
06.06.2023 14:44 26,7 C 32,8 C 22,2 C 49 % 1018,9 hPa 0,0 l/m 2 min 0 min 878 W/m 12,9 km/h (3 Bft) 97,87 %
06.06.2023 14:46 26,8 C 32,8 C 22,2 C 50 % 1019,0 hPa 0,0 l/m 2 min 0 min 874 W/m 9,7 km/h (2 Bft) 95,74 %
06.06.2023 14:48 26,9 C 32,2 C 22,2 C 50 % 1018,9 hPa 0,0 l/m 2 min 0 min 880 W/m 9,7 km/h (2 Bft) 95,65 %
06.06.2023 14:50 26,9 C 32,2 C 22,8 C 49 % 1018,8 hPa 0,0 l/m 2 min 0 min 886 W/m 16,1 km/h (3 Bft) 95,74 %
06.06.2023 14:52 26,9 C 31,1 C 22,8 C 48 % 1018,9 hPa 0,0 l/m 2 min 0 min 896 W/m 16,1 km/h (3 Bft) 93,62 %
06.06.2023 14:54 26,8 C 32,2 C 22,2 C 49 % 1018,8 hPa 0,0 l/m 2 min 0 min 918 W/m 6,4 km/h (2 Bft) 95,74 %
06.06.2023 14:56 26,9 C 32,2 C 22,8 C 49 % 1018,8 hPa 0,0 l/m 2 min 0 min 930 W/m 9,7 km/h (2 Bft) 95,74 %
06.06.2023 14:58 27,0 C 32,2 C 22,8 C 46 % 1018,8 hPa 0,0 l/m 2 min 0 min 933 W/m 16,1 km/h (3 Bft) 95,74 %
06.06.2023 15:00 27,1 C 32,8 C 22,8 C 47 % 1018,8 hPa 0,0 l/m 2 min 0 min 926 W/m 16,1 km/h (3 Bft) 95,74 %
06.06.2023 15:02 27,2 C 32,2 C 22,8 C 48 % 1018,8 hPa 0,0 l/m 2 min 0 min 945 W/m 12,9 km/h (3 Bft) 97,83 %
06.06.2023 15:04 27,2 C 32,2 C 22,8 C 48 % 1018,8 hPa 0,0 l/m 2 min 0 min 950 W/m 12,9 km/h (3 Bft) 97,87 %
06.06.2023 15:06 27,2 C 31,7 C 22,8 C 48 % 1018,8 hPa 0,0 l/m 2 min 0 min 931 W/m 6,4 km/h (2 Bft) 97,96 %
06.06.2023 15:08 27,1 C 31,1 C 22,8 C 48 % 1018,8 hPa 0,0 l/m 2 min 0 min 858 W/m 6,4 km/h (2 Bft) 97,87 %
06.06.2023 15:10 27,1 C 30,6 C 22,8 C 47 % 1018,7 hPa 0,0 l/m 2 min 0 min 857 W/m 19,3 km/h (3 Bft) 97,87 %
06.06.2023 15:12 27,0 C 31,1 C 22,8 C 48 % 1018,7 hPa 0,0 l/m 2 min 0 min 975 W/m 9,7 km/h (2 Bft) 97,87 %
06.06.2023 15:14 27,1 C 30,6 C 22,8 C 48 % 1018,7 hPa 0,0 l/m 2 min 0 min 943 W/m 6,4 km/h (2 Bft) 95,74 %
06.06.2023 15:16 27,1 C 28,9 C 22,8 C 46 % 1018,8 hPa 0,0 l/m 2 min 0 min 584 W/m 19,3 km/h (3 Bft) 97,30 %
06.06.2023 15:18 27,0 C 27,8 C 22,8 C 46 % 1018,8 hPa 0,0 l/m 0 min 0 min 279 W/m 12,9 km/h (3 Bft) 97,87 %
06.06.2023 15:20 26,9 C 27,2 C 22,2 C 48 % 1018,8 hPa 0,0 l/m 0 min 0 min 328 W/m 12,9 km/h (3 Bft) 97,87 %
06.06.2023 15:22 26,6 C 26,7 C 22,2 C 48 % 1018,8 hPa 0,0 l/m 0 min 0 min 297 W/m 16,1 km/h (3 Bft) 95,74 %
06.06.2023 15:24 26,4 C 27,8 C 21,7 C 49 % 1018,7 hPa 0,0 l/m 0 min 0 min 306 W/m 16,1 km/h (3 Bft) 97,87 %
06.06.2023 15:26 26,4 C 28,3 C 22,2 C 49 % 1018,8 hPa 0,0 l/m 2 min 0 min 424 W/m 12,9 km/h (3 Bft) 97,87 %
06.06.2023 15:28 26,4 C 28,9 C 22,2 C 50 % 1018,8 hPa 0,0 l/m 2 min 0 min 459 W/m 19,3 km/h (3 Bft) 95,92 %
06.06.2023 15:30 26,5 C 30,0 C 22,8 C 49 % 1018,8 hPa 0,0 l/m 2 min 0 min 782 W/m 16,1 km/h (3 Bft) 95,74 %
06.06.2023 15:32 26,6 C 30,6 C 22,8 C 49 % 1018,7 hPa 0,0 l/m 2 min 0 min 962 W/m 19,3 km/h (3 Bft) 97,87 %
06.06.2023 15:34 26,7 C 31,7 C 22,8 C 49 % 1018,7 hPa 0,0 l/m 2 min 0 min 975 W/m 16,1 km/h (3 Bft) 100,00 %
06.06.2023 15:36 26,9 C 30,0 C 22,8 C 48 % 1018,7 hPa 0,0 l/m 2 min 0 min 880 W/m 19,3 km/h (3 Bft) 100,00 %
06.06.2023 15:38 26,9 C 28,3 C 22,8 C 48 % 1018,7 hPa 0,0 l/m 2 min 0 min 413 W/m 16,1 km/h (3 Bft) 100,00 %
06.06.2023 15:40 26,8 C 27,8 C 22,2 C 47 % 1018,7 hPa 0,0 l/m 0 min 0 min 311 W/m 9,7 km/h (2 Bft) 100,00 %
06.06.2023 15:42 26,7 C 27,2 C 22,2 C 47 % 1018,6 hPa 0,0 l/m 0 min 0 min 267 W/m 6,4 km/h (2 Bft) 100,00 %
06.06.2023 15:44 26,6 C 27,2 C 22,2 C 47 % 1018,5 hPa 0,0 l/m 0 min 0 min 283 W/m 25,7 km/h (4 Bft) 100,00 %
06.06.2023 15:46 26,5 C 27,2 C 22,2 C 48 % 1018,7 hPa 0,0 l/m 0 min 0 min 355 W/m 12,9 km/h (3 Bft) 100,00 %
06.06.2023 15:48 26,4 C 28,9 C 22,2 C 47 % 1018,7 hPa 0,0 l/m 2 min 0 min 568 W/m 12,9 km/h (3 Bft) 100,00 %
06.06.2023 15:50 26,5 C 29,4 C 22,2 C 47 % 1018,6 hPa 0,0 l/m 2 min 0 min 956 W/m 12,9 km/h (3 Bft) 100,00 %
06.06.2023 15:52 26,6 C 29,4 C 22,8 C 45 % 1018,7 hPa 0,0 l/m 2 min 0 min 934 W/m 12,9 km/h (3 Bft) 100,00 %
06.06.2023 15:54 26,6 C 30,0 C 22,8 C 46 % 1018,6 hPa 0,0 l/m 2 min 0 min 839 W/m 9,7 km/h (2 Bft) 97,87 %
06.06.2023 15:56 26,7 C 30,6 C 22,8 C 46 % 1018,6 hPa 0,0 l/m 2 min 0 min 783 W/m 9,7 km/h (2 Bft) 95,65 %
06.06.2023 15:58 26,8 C 30,6 C 22,8 C 47 % 1018,6 hPa 0,0 l/m 2 min 0 min 735 W/m 9,7 km/h (2 Bft) 97,87 %
06.06.2023 16:00 26,9 C 30,6 C 22,8 C 46 % 1018,6 hPa 0,0 l/m 2 min 0 min 624 W/m 12,9 km/h (3 Bft) 97,87 %
06.06.2023 16:02 26,9 C 28,3 C 22,8 C 45 % 1018,5 hPa 0,0 l/m 2 min 0 min 412 W/m 16,1 km/h (3 Bft) 95,74 %
06.06.2023 16:04 26,8 C 27,8 C 22,8 C 46 % 1018,5 hPa 0,0 l/m 0 min 0 min 372 W/m 12,9 km/h (3 Bft) 97,87 %
06.06.2023 16:06 26,8 C 28,3 C 22,8 C 46 % 1018,5 hPa 0,0 l/m 0 min 0 min 358 W/m 6,4 km/h (2 Bft) 95,83 %
06.06.2023 16:08 26,8 C 28,9 C 22,8 C 45 % 1018,5 hPa 0,0 l/m 2 min 0 min 576 W/m 3,2 km/h (1 Bft) 95,74 %
06.06.2023 16:10 26,9 C 30,0 C 22,8 C 46 % 1018,5 hPa 0,0 l/m 2 min 0 min 664 W/m 16,1 km/h (3 Bft) 97,87 %
06.06.2023 16:12 26,9 C 29,4 C 22,8 C 47 % 1018,4 hPa 0,0 l/m 2 min 0 min 741 W/m 9,7 km/h (2 Bft) 95,65 %
06.06.2023 16:14 26,9 C 30,0 C 22,8 C 48 % 1018,5 hPa 0,0 l/m 2 min 0 min 665 W/m 9,7 km/h (2 Bft) 95,74 %
06.06.2023 16:16 26,9 C 30,6 C 22,8 C 45 % 1018,4 hPa 0,0 l/m 2 min 0 min 673 W/m 19,3 km/h (3 Bft) 97,87 %
06.06.2023 16:18 26,9 C 30,0 C 22,8 C 44 % 1018,4 hPa 0,0 l/m 2 min 0 min 674 W/m 12,9 km/h (3 Bft) 97,87 %
06.06.2023 16:20 27,0 C 30,6 C 23,3 C 46 % 1018,4 hPa 0,0 l/m 2 min 0 min 749 W/m 6,4 km/h (2 Bft) 93,62 %
06.06.2023 16:22 27,1 C 30,6 C 23,3 C 45 % 1018,5 hPa 0,0 l/m 2 min 0 min 728 W/m 9,7 km/h (2 Bft) 95,74 %
06.06.2023 16:24 27,2 C 31,1 C 23,3 C 44 % 1018,5 hPa 0,0 l/m 2 min 0 min 682 W/m 6,4 km/h (2 Bft) 95,24 %
06.06.2023 16:26 27,3 C 31,1 C 23,9 C 43 % 1018,5 hPa 0,0 l/m 2 min 0 min 675 W/m 6,4 km/h (2 Bft) 95,74 %
06.06.2023 16:28 27,4 C 30,6 C 23,3 C 42 % 1018,4 hPa 0,0 l/m 2 min 0 min 693 W/m 6,4 km/h (2 Bft) 91,49 %
06.06.2023 16:30 27,4 C 30,6 C 23,3 C 43 % 1018,4 hPa 0,0 l/m 2 min 0 min 660 W/m 3,2 km/h (1 Bft) 93,48 %
06.06.2023 16:32 27,4 C 30,6 C 23,3 C 43 % 1018,4 hPa 0,0 l/m 2 min 0 min 653 W/m 22,5 km/h (4 Bft) 95,74 %
06.06.2023 16:34 27,4 C 30,0 C 23,3 C 43 % 1018,4 hPa 0,0 l/m 2 min 0 min 684 W/m 16,1 km/h (3 Bft) 95,74 %
06.06.2023 16:36 27,4 C 29,4 C 23,3 C 42 % 1018,4 hPa 0,0 l/m 2 min 0 min 590 W/m 12,9 km/h (3 Bft) 93,62 %
06.06.2023 16:38 27,4 C 29,4 C 23,3 C 43 % 1018,4 hPa 0,0 l/m 2 min 0 min 595 W/m 6,4 km/h (2 Bft) 97,87 %
06.06.2023 16:40 27,4 C 29,4 C 23,3 C 44 % 1018,4 hPa 0,0 l/m 2 min 0 min 625 W/m 6,4 km/h (2 Bft) 94,00 %
06.06.2023 16:42 27,4 C 29,4 C 23,3 C 44 % 1018,4 hPa 0,0 l/m 2 min 0 min 566 W/m 6,4 km/h (2 Bft) 95,83 %
06.06.2023 16:44 27,4 C 30,0 C 23,3 C 44 % 1018,3 hPa 0,0 l/m 2 min 0 min 512 W/m 6,4 km/h (2 Bft) 93,62 %
06.06.2023 16:46 27,6 C 30,0 C 23,3 C 45 % 1018,3 hPa 0,0 l/m 2 min 0 min 531 W/m 6,4 km/h (2 Bft) 97,62 %
06.06.2023 16:48 27,6 C 28,9 C 23,3 C 43 % 1018,3 hPa 0,0 l/m 0 min 0 min 336 W/m 9,7 km/h (2 Bft) 96,00 %
06.06.2023 16:50 27,5 C 28,9 C 23,3 C 44 % 1018,3 hPa 0,0 l/m 0 min 0 min 314 W/m 9,7 km/h (2 Bft) 100,00 %
06.06.2023 16:52 27,4 C 27,8 C 22,8 C 43 % 1018,4 hPa 0,0 l/m 0 min 0 min 302 W/m 19,3 km/h (3 Bft) 100,00 %
06.06.2023 16:54 27,2 C 27,2 C 22,8 C 44 % 1018,3 hPa 0,0 l/m 0 min 0 min 305 W/m 16,1 km/h (3 Bft) 100,00 %
06.06.2023 16:56 27,1 C 26,7 C 22,2 C 45 % 1018,3 hPa 0,0 l/m 0 min 0 min 309 W/m 22,5 km/h (4 Bft) 97,83 %
06.06.2023 16:58 27,0 C 26,7 C 22,2 C 45 % 1018,4 hPa 0,0 l/m 0 min 0 min 316 W/m 19,3 km/h (3 Bft) 100,00 %
06.06.2023 17:00 26,8 C 26,7 C 22,2 C 47 % 1018,4 hPa 0,0 l/m 0 min 0 min 308 W/m 6,4 km/h (2 Bft) 100,00 %
06.06.2023 17:02 26,7 C 26,7 C 22,2 C 46 % 1018,4 hPa 0,0 l/m 0 min 0 min 311 W/m 9,7 km/h (2 Bft) 100,00 %
06.06.2023 17:04 26,6 C 26,7 C 22,2 C 47 % 1018,3 hPa 0,0 l/m 0 min 0 min 311 W/m 12,9 km/h (3 Bft) 100,00 %
06.06.2023 17:06 26,4 C 26,7 C 22,2 C 47 % 1018,3 hPa 0,0 l/m 0 min 0 min 279 W/m 9,7 km/h (2 Bft) 100,00 %
06.06.2023 17:08 26,4 C 26,7 C 21,7 C 47 % 1018,4 hPa 0,0 l/m 0 min 0 min 246 W/m 12,9 km/h (3 Bft) 97,87 %
06.06.2023 17:10 26,3 C 26,7 C 21,7 C 48 % 1018,3 hPa 0,0 l/m 0 min 0 min 231 W/m 12,9 km/h (3 Bft) 100,00 %
06.06.2023 17:12 26,1 C 26,7 C 21,7 C 47 % 1018,3 hPa 0,0 l/m 0 min 0 min 212 W/m 6,4 km/h (2 Bft) 100,00 %
06.06.2023 17:14 26,0 C 26,1 C 21,7 C 48 % 1018,3 hPa 0,0 l/m 0 min 0 min 215 W/m 9,7 km/h (2 Bft) 93,62 %
06.06.2023 17:16 25,8 C 26,1 C 21,1 C 48 % 1018,3 hPa 0,0 l/m 0 min 0 min 202 W/m 9,7 km/h (2 Bft) 100,00 %
06.06.2023 17:18 25,8 C 26,1 C 21,1 C 47 % 1018,3 hPa 0,0 l/m 0 min 0 min 198 W/m 9,7 km/h (2 Bft) 95,74 %
06.06.2023 17:20 25,7 C 26,1 C 21,1 C 48 % 1018,3 hPa 0,0 l/m 0 min 0 min 215 W/m 6,4 km/h (2 Bft) 97,87 %
06.06.2023 17:22 25,6 C 25,6 C 21,1 C 47 % 1018,3 hPa 0,0 l/m 0 min 0 min 246 W/m 12,9 km/h (3 Bft) 100,00 %
06.06.2023 17:24 25,6 C 26,1 C 21,1 C 49 % 1018,3 hPa 0,0 l/m 2 min 0 min 339 W/m 6,4 km/h (2 Bft) 100,00 %
06.06.2023 17:26 25,6 C 27,2 C 21,7 C 48 % 1018,3 hPa 0,0 l/m 2 min 0 min 500 W/m 6,4 km/h (2 Bft) 100,00 %
06.06.2023 17:28 25,7 C 28,9 C 22,2 C 48 % 1018,3 hPa 0,0 l/m 2 min 0 min 545 W/m 16,1 km/h (3 Bft) 97,87 %
06.06.2023 17:30 25,7 C 29,4 C 22,2 C 48 % 1018,3 hPa 0,0 l/m 2 min 0 min 636 W/m 9,7 km/h (2 Bft) 100,00 %
06.06.2023 17:32 25,9 C 30,6 C 22,8 C 49 % 1018,3 hPa 0,0 l/m 2 min 0 min 665 W/m 12,9 km/h (3 Bft) 100,00 %
06.06.2023 17:34 26,1 C 30,6 C 23,3 C 48 % 1018,2 hPa 0,0 l/m 2 min 0 min 624 W/m 16,1 km/h (3 Bft) 100,00 %
06.06.2023 17:36 26,3 C 30,6 C 23,3 C 48 % 1018,2 hPa 0,0 l/m 2 min 0 min 494 W/m 9,7 km/h (2 Bft) 100,00 %
06.06.2023 17:38 26,4 C 30,6 C 23,3 C 47 % 1018,3 hPa 0,0 l/m 2 min 0 min 524 W/m 9,7 km/h (2 Bft) 95,65 %
06.06.2023 17:40 26,6 C 30,6 C 23,3 C 47 % 1018,2 hPa 0,0 l/m 2 min 0 min 543 W/m 9,7 km/h (2 Bft) 95,74 %
06.06.2023 17:42 26,6 C 30,0 C 23,3 C 47 % 1018,2 hPa 0,0 l/m 2 min 0 min 454 W/m 9,7 km/h (2 Bft) 97,87 %
06.06.2023 17:44 26,6 C 30,0 C 23,3 C 46 % 1018,2 hPa 0,0 l/m 2 min 0 min 520 W/m 9,7 km/h (2 Bft) 97,30 %
06.06.2023 17:46 26,7 C 30,6 C 23,3 C 46 % 1018,2 hPa 0,0 l/m 2 min 0 min 586 W/m 12,9 km/h (3 Bft) 97,87 %
06.06.2023 17:48 26,7 C 30,6 C 23,3 C 45 % 1018,1 hPa 0,0 l/m 2 min 0 min 584 W/m 16,1 km/h (3 Bft) 96,30 %
06.06.2023 17:50 26,8 C 31,1 C 23,3 C 45 % 1018,1 hPa 0,0 l/m 2 min 0 min 573 W/m 12,9 km/h (3 Bft) 98,00 %
06.06.2023 17:52 26,9 C 31,1 C 23,9 C 45 % 1018,1 hPa 0,0 l/m 2 min 0 min 516 W/m 12,9 km/h (3 Bft) 97,30 %
06.06.2023 17:54 26,9 C 30,6 C 23,3 C 45 % 1018,2 hPa 0,0 l/m 2 min 0 min 456 W/m 9,7 km/h (2 Bft) 97,83 %
06.06.2023 17:56 27,0 C 30,6 C 23,3 C 45 % 1018,1 hPa 0,0 l/m 2 min 0 min 454 W/m 6,4 km/h (2 Bft) 97,87 %
06.06.2023 17:58 27,1 C 30,6 C 23,3 C 46 % 1018,2 hPa 0,0 l/m 2 min 0 min 474 W/m 6,4 km/h (2 Bft) 97,87 %
06.06.2023 18:00 27,1 C 30,6 C 23,9 C 45 % 1018,2 hPa 0,0 l/m 2 min 0 min 540 W/m 6,4 km/h (2 Bft) 98,15 %
06.06.2023 18:02 27,2 C 31,7 C 23,9 C 45 % 1018,2 hPa 0,0 l/m 2 min 0 min 583 W/m 6,4 km/h (2 Bft) 97,87 %
06.06.2023 18:04 27,3 C 31,7 C 23,9 C 45 % 1018,1 hPa 0,0 l/m 2 min 0 min 574 W/m 9,7 km/h (2 Bft) 96,00 %
06.06.2023 18:08 27,3 C 30,6 C 23,9 C 46 % 1018,0 hPa 0,0 l/m 4 min 0 min 522 W/m 12,9 km/h (3 Bft) 97,89 %
06.06.2023 18:12 27,3 C 30,6 C 23,3 C 45 % 1018,1 hPa 0,0 l/m 4 min 0 min 369 W/m 12,9 km/h (3 Bft) 100,00 %
06.06.2023 18:14 27,3 C 29,4 C 23,3 C 46 % 1018,0 hPa 0,0 l/m 2 min 0 min 298 W/m 9,7 km/h (2 Bft) 93,62 %
06.06.2023 18:16 27,1 C 28,3 C 22,8 C 44 % 1018,1 hPa 0,0 l/m 0 min 0 min 247 W/m 16,1 km/h (3 Bft) 96,36 %
06.06.2023 18:18 26,9 C 27,8 C 22,8 C 45 % 1018,1 hPa 0,0 l/m 0 min 0 min 235 W/m 9,7 km/h (2 Bft) 95,74 %
06.06.2023 18:20 26,8 C 27,2 C 22,2 C 44 % 1018,1 hPa 0,0 l/m 0 min 0 min 194 W/m 9,7 km/h (2 Bft) 93,48 %
06.06.2023 18:22 26,6 C 26,7 C 22,2 C 45 % 1018,0 hPa 0,0 l/m 0 min 0 min 178 W/m 9,7 km/h (2 Bft) 95,74 %
06.06.2023 18:24 26,4 C 26,1 C 21,7 C 44 % 1018,1 hPa 0,0 l/m 0 min 0 min 176 W/m 12,9 km/h (3 Bft) 95,74 %
06.06.2023 18:26 26,3 C 25,6 C 21,7 C 46 % 1018,1 hPa 0,0 l/m 0 min 0 min 172 W/m 6,4 km/h (2 Bft) 95,74 %
06.06.2023 18:28 26,1 C 25,6 C 21,7 C 47 % 1018,1 hPa 0,0 l/m 0 min 0 min 165 W/m 9,7 km/h (2 Bft) 95,74 %
06.06.2023 18:30 26,0 C 25,6 C 21,7 C 48 % 1018,1 hPa 0,0 l/m 0 min 0 min 162 W/m 6,4 km/h (2 Bft) 93,62 %
06.06.2023 18:32 25,8 C 25,6 C 21,7 C 49 % 1018,1 hPa 0,0 l/m 0 min 0 min 163 W/m 9,7 km/h (2 Bft) 93,62 %
06.06.2023 18:34 25,8 C 25,6 C 21,7 C 48 % 1018,2 hPa 0,0 l/m 0 min 0 min 176 W/m 9,7 km/h (2 Bft) 91,30 %
06.06.2023 18:36 25,7 C 25,6 C 21,7 C 48 % 1018,2 hPa 0,0 l/m 0 min 0 min 202 W/m 9,7 km/h (2 Bft) 95,74 %
06.06.2023 18:38 25,6 C 25,6 C 21,7 C 48 % 1018,2 hPa 0,0 l/m 0 min 0 min 211 W/m 12,9 km/h (3 Bft) 95,74 %
06.06.2023 18:40 25,5 C 25,6 C 21,7 C 48 % 1018,2 hPa 0,0 l/m 0 min 0 min 202 W/m 12,9 km/h (3 Bft) 95,74 %
06.06.2023 18:42 25,4 C 25,6 C 21,1 C 48 % 1018,2 hPa 0,0 l/m 0 min 0 min 194 W/m 12,9 km/h (3 Bft) 93,62 %
06.06.2023 18:44 25,3 C 25,6 C 21,1 C 48 % 1018,2 hPa 0,0 l/m 0 min 0 min 192 W/m 9,7 km/h (2 Bft) 95,74 %
06.06.2023 18:46 25,3 C 25,6 C 21,1 C 48 % 1018,2 hPa 0,0 l/m 0 min 0 min 192 W/m 6,4 km/h (2 Bft) 93,62 %
06.06.2023 18:48 25,2 C 25,6 C 21,1 C 49 % 1018,2 hPa 0,0 l/m 0 min 0 min 180 W/m 12,9 km/h (3 Bft) 95,65 %
06.06.2023 18:50 25,2 C 25,0 C 21,1 C 50 % 1018,2 hPa 0,0 l/m 0 min 0 min 166 W/m 6,4 km/h (2 Bft) 97,87 %
06.06.2023 18:52 25,2 C 25,0 C 21,1 C 50 % 1018,2 hPa 0,0 l/m 0 min 0 min 156 W/m 9,7 km/h (2 Bft) 97,87 %
06.06.2023 18:54 25,1 C 25,0 C 21,1 C 50 % 1018,3 hPa 0,0 l/m 0 min 0 min 151 W/m 6,4 km/h (2 Bft) 97,87 %
06.06.2023 18:56 25,1 C 25,0 C 21,1 C 50 % 1018,3 hPa 0,0 l/m 0 min 0 min 151 W/m 9,7 km/h (2 Bft) 97,87 %
06.06.2023 18:58 25,0 C 25,0 C 20,6 C 50 % 1018,3 hPa 0,0 l/m 0 min 0 min 150 W/m 12,9 km/h (3 Bft) 97,87 %
06.06.2023 19:00 24,9 C 25,0 C 20,6 C 49 % 1018,3 hPa 0,0 l/m 0 min 0 min 149 W/m 12,9 km/h (3 Bft) 95,74 %
06.06.2023 19:02 24,8 C 24,4 C 20,6 C 49 % 1018,3 hPa 0,0 l/m 0 min 0 min 149 W/m 9,7 km/h (2 Bft) 97,87 %
06.06.2023 19:04 24,8 C 24,4 C 20,6 C 49 % 1018,3 hPa 0,0 l/m 0 min 0 min 148 W/m 12,9 km/h (3 Bft) 97,83 %
06.06.2023 19:06 24,7 C 24,4 C 20,6 C 49 % 1018,3 hPa 0,0 l/m 0 min 0 min 145 W/m 12,9 km/h (3 Bft) 97,87 %
06.06.2023 19:08 24,7 C 24,4 C 20,6 C 49 % 1018,3 hPa 0,0 l/m 0 min 0 min 140 W/m 12,9 km/h (3 Bft) 97,87 %
06.06.2023 19:10 24,6 C 24,4 C 20,6 C 49 % 1018,4 hPa 0,0 l/m 0 min 0 min 134 W/m 16,1 km/h (3 Bft) 100,00 %
06.06.2023 19:12 24,6 C 24,4 C 20,6 C 49 % 1018,3 hPa 0,0 l/m 0 min 0 min 129 W/m 12,9 km/h (3 Bft) 95,74 %
06.06.2023 19:14 24,5 C 24,4 C 20,6 C 49 % 1018,3 hPa 0,0 l/m 0 min 0 min 125 W/m 9,7 km/h (2 Bft) 100,00 %
06.06.2023 19:16 24,5 C 24,4 C 20,0 C 49 % 1018,3 hPa 0,0 l/m 0 min 0 min 119 W/m 6,4 km/h (2 Bft) 100,00 %
06.06.2023 19:18 24,4 C 23,9 C 20,0 C 49 % 1018,3 hPa 0,0 l/m 0 min 0 min 115 W/m 9,7 km/h (2 Bft) 100,00 %
06.06.2023 19:20 24,3 C 23,9 C 20,0 C 49 % 1018,3 hPa 0,0 l/m 0 min 0 min 108 W/m 9,7 km/h (2 Bft) 100,00 %
06.06.2023 19:22 24,3 C 23,9 C 20,0 C 48 % 1018,3 hPa 0,0 l/m 0 min 0 min 97 W/m 9,7 km/h (2 Bft) 100,00 %
06.06.2023 19:24 24,2 C 23,9 C 20,0 C 48 % 1018,3 hPa 0,0 l/m 0 min 0 min 100 W/m 12,9 km/h (3 Bft) 100,00 %
06.06.2023 19:26 24,2 C 24,4 C 20,0 C 48 % 1018,3 hPa 0,0 l/m 0 min 0 min 143 W/m 9,7 km/h (2 Bft) 100,00 %
06.06.2023 19:28 24,2 C 25,0 C 20,0 C 49 % 1018,3 hPa 0,0 l/m 2 min 0 min 192 W/m 6,4 km/h (2 Bft) 100,00 %
06.06.2023 19:30 24,2 C 24,4 C 20,0 C 49 % 1018,3 hPa 0,0 l/m 0 min 0 min 98 W/m 12,9 km/h (3 Bft) 100,00 %
06.06.2023 19:32 24,1 C 24,4 C 20,0 C 49 % 1018,3 hPa 0,0 l/m 0 min 0 min 95 W/m 9,7 km/h (2 Bft) 100,00 %
06.06.2023 19:34 24,1 C 23,9 C 20,0 C 48 % 1018,3 hPa 0,0 l/m 0 min 0 min 124 W/m 12,9 km/h (3 Bft) 100,00 %
06.06.2023 19:36 24,1 C 23,9 C 20,0 C 48 % 1018,3 hPa 0,0 l/m 2 min 0 min 199 W/m 6,4 km/h (2 Bft) 100,00 %
06.06.2023 19:38 24,1 C 23,9 C 20,0 C 48 % 1018,4 hPa 0,0 l/m 0 min 0 min 146 W/m 9,7 km/h (2 Bft) 100,00 %
06.06.2023 19:40 24,1 C 23,9 C 19,4 C 48 % 1018,4 hPa 0,0 l/m 0 min 0 min 125 W/m 9,7 km/h (2 Bft) 100,00 %
06.06.2023 19:42 24,0 C 23,9 C 19,4 C 49 % 1018,3 hPa 0,0 l/m 2 min 0 min 176 W/m 6,4 km/h (2 Bft) 100,00 %
06.06.2023 19:44 23,9 C 23,9 C 19,4 C 49 % 1018,4 hPa 0,0 l/m 0 min 0 min 129 W/m 6,4 km/h (2 Bft) 100,00 %
06.06.2023 19:46 23,9 C 23,9 C 19,4 C 49 % 1018,4 hPa 0,0 l/m 0 min 0 min 137 W/m 9,7 km/h (2 Bft) 100,00 %
06.06.2023 19:48 23,9 C 23,9 C 19,4 C 49 % 1018,4 hPa 0,0 l/m 2 min 0 min 170 W/m 6,4 km/h (2 Bft) 95,65 %
06.06.2023 19:50 23,9 C 23,9 C 19,4 C 50 % 1018,4 hPa 0,0 l/m 2 min 0 min 173 W/m 6,4 km/h (2 Bft) 100,00 %
06.06.2023 19:52 23,9 C 23,9 C 19,4 C 50 % 1018,4 hPa 0,0 l/m 2 min 0 min 148 W/m 9,7 km/h (2 Bft) 100,00 %
06.06.2023 19:54 23,8 C 23,9 C 19,4 C 50 % 1018,4 hPa 0,0 l/m 2 min 0 min 153 W/m 6,4 km/h (2 Bft) 100,00 %
06.06.2023 19:56 23,8 C 23,9 C 19,4 C 50 % 1018,4 hPa 0,0 l/m 0 min 0 min 117 W/m 6,4 km/h (2 Bft) 100,00 %
06.06.2023 19:58 23,8 C 23,9 C 19,4 C 50 % 1018,4 hPa 0,0 l/m 0 min 0 min 122 W/m 6,4 km/h (2 Bft) 97,87 %
06.06.2023 20:00 23,8 C 23,9 C 19,4 C 50 % 1018,4 hPa 0,0 l/m 2 min 0 min 131 W/m 6,4 km/h (2 Bft) 100,00 %
06.06.2023 20:02 23,8 C 23,9 C 20,0 C 50 % 1018,4 hPa 0,0 l/m 2 min 0 min 135 W/m 9,7 km/h (2 Bft) 97,87 %
06.06.2023 20:04 23,9 C 24,4 C 20,0 C 50 % 1018,4 hPa 0,0 l/m 2 min 0 min 137 W/m 9,7 km/h (2 Bft) 100,00 %
06.06.2023 20:06 23,9 C 24,4 C 20,0 C 50 % 1018,4 hPa 0,0 l/m 2 min 0 min 135 W/m 6,4 km/h (2 Bft) 98,33 %
06.06.2023 20:08 23,9 C 24,4 C 20,0 C 49 % 1018,4 hPa 0,0 l/m 2 min 0 min 129 W/m 3,2 km/h (1 Bft) 100,00 %
06.06.2023 20:10 23,9 C 24,4 C 20,0 C 49 % 1018,4 hPa 0,0 l/m 2 min 0 min 121 W/m 6,4 km/h (2 Bft) 100,00 %
06.06.2023 20:12 23,9 C 24,4 C 20,0 C 48 % 1018,3 hPa 0,0 l/m 2 min 0 min 111 W/m 6,4 km/h (2 Bft) 100,00 %
06.06.2023 20:14 24,0 C 23,9 C 20,0 C 47 % 1018,3 hPa 0,0 l/m 2 min 0 min 104 W/m 12,9 km/h (3 Bft) 100,00 %
06.06.2023 20:16 24,0 C 23,9 C 20,0 C 47 % 1018,3 hPa 0,0 l/m 0 min 0 min 98 W/m 9,7 km/h (2 Bft) 95,74 %
06.06.2023 20:18 24,0 C 23,9 C 20,0 C 47 % 1018,3 hPa 0,0 l/m 0 min 0 min 93 W/m 6,4 km/h (2 Bft) 97,83 %
06.06.2023 20:20 24,1 C 23,9 C 20,0 C 48 % 1018,3 hPa 0,0 l/m 0 min 0 min 89 W/m 3,2 km/h (1 Bft) 97,87 %
06.06.2023 20:22 24,1 C 23,9 C 20,0 C 47 % 1018,3 hPa 0,0 l/m 0 min 0 min 84 W/m 9,7 km/h (2 Bft) 97,87 %
06.06.2023 20:24 24,0 C 23,9 C 19,4 C 47 % 1018,3 hPa 0,0 l/m 0 min 0 min 79 W/m 6,4 km/h (2 Bft) 97,87 %
06.06.2023 20:26 24,0 C 23,9 C 19,4 C 48 % 1018,3 hPa 0,0 l/m 0 min 0 min 73 W/m 6,4 km/h (2 Bft) 97,87 %
06.06.2023 20:28 23,9 C 23,9 C 19,4 C 48 % 1018,3 hPa 0,0 l/m 0 min 0 min 66 W/m 6,4 km/h (2 Bft) 97,87 %
06.06.2023 20:30 23,9 C 23,3 C 19,4 C 47 % 1018,3 hPa 0,0 l/m 0 min 0 min 59 W/m 12,9 km/h (3 Bft) 97,83 %
06.06.2023 20:32 23,9 C 23,3 C 19,4 C 46 % 1018,3 hPa 0,0 l/m 0 min 0 min 54 W/m 6,4 km/h (2 Bft) 93,62 %
06.06.2023 20:34 23,8 C 23,3 C 19,4 C 47 % 1018,3 hPa 0,0 l/m 0 min 0 min 51 W/m 3,2 km/h (1 Bft) 97,87 %
06.06.2023 20:36 23,8 C 23,3 C 18,9 C 47 % 1018,3 hPa 0,0 l/m 0 min 0 min 48 W/m 6,4 km/h (2 Bft) 93,62 %
06.06.2023 20:38 23,8 C 23,3 C 18,9 C 46 % 1018,3 hPa 0,0 l/m 0 min 0 min 46 W/m 6,4 km/h (2 Bft) 97,87 %
06.06.2023 20:40 23,7 C 23,3 C 18,9 C 46 % 1018,3 hPa 0,0 l/m 0 min 0 min 44 W/m 3,2 km/h (1 Bft) 95,74 %
06.06.2023 20:42 23,7 C 22,8 C 18,9 C 46 % 1018,3 hPa 0,0 l/m 0 min 0 min 40 W/m 6,4 km/h (2 Bft) 97,87 %
06.06.2023 20:44 23,7 C 22,8 C 18,9 C 47 % 1018,3 hPa 0,0 l/m 0 min 0 min 39 W/m 6,4 km/h (2 Bft) 97,87 %
06.06.2023 20:46 23,6 C 22,8 C 18,9 C 47 % 1018,3 hPa 0,0 l/m 0 min 0 min 39 W/m 3,2 km/h (1 Bft) 97,83 %
06.06.2023 20:48 23,6 C 22,8 C 18,9 C 48 % 1018,3 hPa 0,0 l/m 0 min 0 min 38 W/m 6,4 km/h (2 Bft) 100,00 %
06.06.2023 20:50 23,4 C 22,8 C 18,3 C 49 % 1018,3 hPa 0,0 l/m 0 min 0 min 39 W/m 3,2 km/h (1 Bft) 100,00 %
06.06.2023 20:52 23,4 C 22,2 C 18,3 C 48 % 1018,4 hPa 0,0 l/m 0 min 0 min 39 W/m 3,2 km/h (1 Bft) 97,87 %
06.06.2023 20:54 23,3 C 22,2 C 18,3 C 49 % 1018,4 hPa 0,0 l/m 0 min 0 min 39 W/m 3,2 km/h (1 Bft) 97,87 %
06.06.2023 20:56 23,2 C 22,2 C 18,3 C 50 % 1018,4 hPa 0,0 l/m 0 min 0 min 38 W/m 3,2 km/h (1 Bft) 95,74 %
06.06.2023 20:58 23,2 C 22,2 C 18,3 C 50 % 1018,4 hPa 0,0 l/m 0 min 0 min 37 W/m 3,2 km/h (1 Bft) 97,87 %
06.06.2023 21:00 23,1 C 22,2 C 18,3 C 50 % 1018,5 hPa 0,0 l/m 0 min 0 min 37 W/m 3,2 km/h (1 Bft) 95,65 %
06.06.2023 21:02 23,0 C 22,2 C 17,8 C 51 % 1018,4 hPa 0,0 l/m 0 min 0 min 36 W/m 3,2 km/h (1 Bft) 93,62 %
06.06.2023 21:04 22,9 C 22,2 C 17,8 C 53 % 1018,4 hPa 0,0 l/m 0 min 0 min 35 W/m 3,2 km/h (1 Bft) 93,62 %
06.06.2023 21:06 22,9 C 21,7 C 17,8 C 53 % 1018,5 hPa 0,0 l/m 0 min 0 min 33 W/m 3,2 km/h (1 Bft) 95,74 %
06.06.2023 21:08 22,8 C 21,7 C 17,8 C 54 % 1018,4 hPa 0,0 l/m 0 min 0 min 32 W/m 0,0 km/h (0 Bft) 93,62 %
06.06.2023 21:10 22,8 C 21,7 C 17,8 C 52 % 1018,5 hPa 0,0 l/m 0 min 0 min 32 W/m 3,2 km/h (1 Bft) 97,87 %
06.06.2023 21:12 22,7 C 21,7 C 17,8 C 52 % 1018,5 hPa 0,0 l/m 0 min 0 min 29 W/m 3,2 km/h (1 Bft) 95,74 %
06.06.2023 21:14 22,6 C 21,7 C 17,8 C 53 % 1018,5 hPa 0,0 l/m 0 min 0 min 26 W/m 3,2 km/h (1 Bft) 95,74 %
06.06.2023 21:16 22,6 C 21,7 C 17,8 C 54 % 1018,5 hPa 0,0 l/m 0 min 0 min 25 W/m 3,2 km/h (1 Bft) 95,65 %
06.06.2023 21:18 22,5 C 21,7 C 17,8 C 52 % 1018,5 hPa 0,0 l/m 0 min 0 min 21 W/m 3,2 km/h (1 Bft) 95,74 %
06.06.2023 21:20 22,4 C 21,7 C 17,8 C 54 % 1018,5 hPa 0,0 l/m 0 min 0 min 18 W/m 0,0 km/h (0 Bft) 93,62 %
06.06.2023 21:22 22,4 C 21,1 C 17,8 C 54 % 1018,6 hPa 0,0 l/m 0 min 0 min 16 W/m 3,2 km/h (1 Bft) 93,62 %
06.06.2023 21:24 22,4 C 21,1 C 17,8 C 54 % 1018,6 hPa 0,0 l/m 0 min 0 min 14 W/m 0,0 km/h (0 Bft) 95,74 %
06.06.2023 21:26 22,4 C 21,1 C 17,8 C 55 % 1018,6 hPa 0,0 l/m 0 min 0 min 11 W/m 0,0 km/h (0 Bft) 93,62 %
06.06.2023 21:28 22,3 C 21,1 C 17,2 C 54 % 1018,6 hPa 0,0 l/m 0 min 0 min 10 W/m 0,0 km/h (0 Bft) 93,62 %
06.06.2023 21:30 22,3 C 21,1 C 17,2 C 55 % 1018,6 hPa 0,0 l/m 0 min 0 min 8 W/m 0,0 km/h (0 Bft) 95,65 %
06.06.2023 21:32 22,3 C 21,1 C 17,2 C 55 % 1018,6 hPa 0,0 l/m 0 min 0 min 7 W/m 0,0 km/h (0 Bft) 95,74 %
06.06.2023 21:34 22,2 C 21,1 C 17,2 C 56 % 1018,6 hPa 0,0 l/m 0 min 0 min 7 W/m 3,2 km/h (1 Bft) 93,62 %
06.06.2023 21:36 22,2 C 21,1 C 17,2 C 54 % 1018,6 hPa 0,0 l/m 0 min 0 min 7 W/m 3,2 km/h (1 Bft) 95,74 %
06.06.2023 21:38 22,2 C 21,1 C 17,2 C 54 % 1018,7 hPa 0,0 l/m 0 min 0 min 6 W/m 3,2 km/h (1 Bft) 91,49 %
06.06.2023 21:40 22,2 C 20,6 C 17,2 C 55 % 1018,7 hPa 0,0 l/m 0 min 0 min 5 W/m 3,2 km/h (1 Bft) 95,74 %
06.06.2023 21:42 22,1 C 20,6 C 17,2 C 55 % 1018,7 hPa 0,0 l/m 0 min 0 min 5 W/m 0,0 km/h (0 Bft) 97,87 %
06.06.2023 21:44 22,1 C 20,6 C 17,2 C 54 % 1018,7 hPa 0,0 l/m 0 min 0 min 5 W/m 3,2 km/h (1 Bft) 97,83 %
06.06.2023 21:46 22,1 C 20,6 C 17,2 C 55 % 1018,7 hPa 0,0 l/m 0 min 0 min 5 W/m 0,0 km/h (0 Bft) 95,74 %
06.06.2023 21:48 22,0 C 20,6 C 17,2 C 55 % 1018,7 hPa 0,0 l/m 0 min 0 min 5 W/m 3,2 km/h (1 Bft) 100,00 %
06.06.2023 21:50 22,0 C 20,6 C 17,2 C 55 % 1018,7 hPa 0,0 l/m 0 min 0 min 0 W/m 0,0 km/h (0 Bft) 100,00 %
06.06.2023 21:52 21,9 C 20,6 C 17,2 C 55 % 1018,8 hPa 0,0 l/m 0 min 0 min 0 W/m 0,0 km/h (0 Bft) 100,00 %
06.06.2023 21:54 21,9 C 20,6 C 17,2 C 56 % 1018,8 hPa 0,0 l/m 0 min 0 min 0 W/m 0,0 km/h (0 Bft) 97,87 %
06.06.2023 21:56 21,9 C 20,6 C 17,2 C 56 % 1018,9 hPa 0,0 l/m 0 min 0 min 0 W/m 0,0 km/h (0 Bft) 97,87 %
06.06.2023 21:58 21,9 C 20,6 C 17,2 C 56 % 1018,9 hPa 0,0 l/m 0 min 0 min 0 W/m 3,2 km/h (1 Bft) 100,00 %
06.06.2023 22:00 21,8 C 20,6 C 17,2 C 56 % 1018,9 hPa 0,0 l/m 0 min 0 min 0 W/m 0,0 km/h (0 Bft) 97,83 %
06.06.2023 22:02 21,8 C 20,6 C 17,2 C 56 % 1018,9 hPa 0,0 l/m 0 min 0 min 0 W/m 0,0 km/h (0 Bft) 97,87 %
06.06.2023 22:04 21,7 C 20,6 C 16,7 C 57 % 1019,0 hPa 0,0 l/m 0 min 0 min 0 W/m 0,0 km/h (0 Bft) 100,00 %
06.06.2023 22:06 21,7 C 20,6 C 16,7 C 58 % 1019,0 hPa 0,0 l/m 0 min 0 min 0 W/m 0,0 km/h (0 Bft) 100,00 %
06.06.2023 22:08 21,7 C 20,0 C 16,7 C 58 % 1019,0 hPa 0,0 l/m 0 min 0 min 0 W/m 0,0 km/h (0 Bft) 100,00 %
06.06.2023 22:10 21,6 C 20,0 C 16,7 C 57 % 1019,0 hPa 0,0 l/m 0 min 0 min 0 W/m 3,2 km/h (1 Bft) 97,87 %
06.06.2023 22:12 21,6 C 20,0 C 16,7 C 57 % 1019,0 hPa 0,0 l/m 0 min 0 min 0 W/m 0,0 km/h (0 Bft) 97,87 %
06.06.2023 22:14 21,6 C 20,0 C 16,7 C 57 % 1019,0 hPa 0,0 l/m 0 min 0 min 0 W/m 0,0 km/h (0 Bft) 97,83 %
06.06.2023 22:16 21,5 C 20,0 C 16,7 C 57 % 1019,0 hPa 0,0 l/m 0 min 0 min 0 W/m 0,0 km/h (0 Bft) 97,87 %
06.06.2023 22:18 21,4 C 20,0 C 16,7 C 58 % 1019,1 hPa 0,0 l/m 0 min 0 min 0 W/m 0,0 km/h (0 Bft) 97,87 %
06.06.2023 22:20 21,4 C 20,0 C 16,7 C 56 % 1019,0 hPa 0,0 l/m 0 min 0 min 0 W/m 3,2 km/h (1 Bft) 97,87 %
06.06.2023 22:22 21,4 C 20,0 C 16,7 C 56 % 1019,1 hPa 0,0 l/m 0 min 0 min 0 W/m 3,2 km/h (1 Bft) 95,74 %
06.06.2023 22:24 21,3 C 20,0 C 16,7 C 56 % 1019,1 hPa 0,0 l/m 0 min 0 min 0 W/m 0,0 km/h (0 Bft) 97,87 %
06.06.2023 22:26 21,3 C 20,0 C 16,7 C 56 % 1019,1 hPa 0,0 l/m 0 min 0 min 0 W/m 6,4 km/h (2 Bft) 97,83 %
06.06.2023 22:28 21,3 C 20,6 C 16,7 C 55 % 1019,1 hPa 0,0 l/m 0 min 0 min 0 W/m 0,0 km/h (0 Bft) 95,74 %
06.06.2023 22:30 21,3 C 20,0 C 16,7 C 56 % 1019,2 hPa 0,0 l/m 0 min 0 min 0 W/m 0,0 km/h (0 Bft) 97,87 %
06.06.2023 22:32 21,3 C 20,0 C 16,7 C 56 % 1019,2 hPa 0,0 l/m 0 min 0 min 0 W/m 0,0 km/h (0 Bft) 95,74 %
06.06.2023 22:34 21,3 C 20,0 C 16,7 C 57 % 1019,2 hPa 0,0 l/m 0 min 0 min 0 W/m 0,0 km/h (0 Bft) 97,87 %
06.06.2023 22:36 21,3 C 20,0 C 16,7 C 58 % 1019,2 hPa 0,0 l/m 0 min 0 min 0 W/m 3,2 km/h (1 Bft) 97,87 %
06.06.2023 22:38 21,3 C 20,0 C 16,7 C 58 % 1019,2 hPa 0,0 l/m 0 min 0 min 0 W/m 0,0 km/h (0 Bft) 97,87 %
06.06.2023 22:40 21,3 C 20,0 C 16,7 C 59 % 1019,2 hPa 0,0 l/m 0 min 0 min 0 W/m 0,0 km/h (0 Bft) 95,74 %
06.06.2023 22:42 21,2 C 20,0 C 16,7 C 59 % 1019,2 hPa 0,0 l/m 0 min 0 min 0 W/m 0,0 km/h (0 Bft) 100,00 %
06.06.2023 22:44 21,2 C 20,0 C 16,7 C 60 % 1019,2 hPa 0,0 l/m 0 min 0 min 0 W/m 0,0 km/h (0 Bft) 100,00 %
06.06.2023 22:46 21,2 C 20,0 C 16,1 C 59 % 1019,2 hPa 0,0 l/m 0 min 0 min 0 W/m 0,0 km/h (0 Bft) 100,00 %
06.06.2023 22:48 21,2 C 20,0 C 16,1 C 58 % 1019,2 hPa 0,0 l/m 0 min 0 min 0 W/m 0,0 km/h (0 Bft) 97,87 %
06.06.2023 22:50 21,1 C 20,0 C 16,1 C 58 % 1019,2 hPa 0,0 l/m 0 min 0 min 0 W/m 0,0 km/h (0 Bft) 100,00 %
06.06.2023 22:52 21,1 C 20,0 C 16,1 C 59 % 1019,3 hPa 0,0 l/m 0 min 0 min 0 W/m 0,0 km/h (0 Bft) 100,00 %
06.06.2023 22:54 21,1 C 20,0 C 16,1 C 59 % 1019,2 hPa 0,0 l/m 0 min 0 min 0 W/m 0,0 km/h (0 Bft) 100,00 %
06.06.2023 22:56 21,1 C 20,0 C 16,1 C 58 % 1019,3 hPa 0,0 l/m 0 min 0 min 0 W/m 0,0 km/h (0 Bft) 100,00 %
06.06.2023 22:58 21,1 C 20,0 C 16,1 C 58 % 1019,3 hPa 0,0 l/m 0 min 0 min 0 W/m 0,0 km/h (0 Bft) 100,00 %
06.06.2023 23:00 21,0 C 20,0 C 16,1 C 57 % 1019,3 hPa 0,0 l/m 0 min 0 min 0 W/m 0,0 km/h (0 Bft) 97,92 %
06.06.2023 23:02 20,9 C 20,0 C 16,1 C 59 % 1019,3 hPa 0,0 l/m 0 min 0 min 0 W/m 0,0 km/h (0 Bft) 100,00 %
06.06.2023 23:04 20,9 C 20,0 C 16,1 C 59 % 1019,3 hPa 0,0 l/m 0 min 0 min 0 W/m 0,0 km/h (0 Bft) 100,00 %
06.06.2023 23:06 20,9 C 19,4 C 16,1 C 60 % 1019,4 hPa 0,0 l/m 0 min 0 min 0 W/m 3,2 km/h (1 Bft) 98,31 %
06.06.2023 23:08 20,9 C 19,4 C 16,1 C 59 % 1019,3 hPa 0,0 l/m 0 min 0 min 0 W/m 0,0 km/h (0 Bft) 100,00 %
06.06.2023 23:10 20,9 C 19,4 C 16,1 C 59 % 1019,5 hPa 0,0 l/m 0 min 0 min 0 W/m 0,0 km/h (0 Bft) 100,00 %
06.06.2023 23:12 20,9 C 19,4 C 16,1 C 59 % 1019,5 hPa 0,0 l/m 0 min 0 min 0 W/m 0,0 km/h (0 Bft) 100,00 %
06.06.2023 23:14 20,8 C 19,4 C 16,1 C 59 % 1019,4 hPa 0,0 l/m 0 min 0 min 0 W/m 0,0 km/h (0 Bft) 100,00 %
06.06.2023 23:16 20,8 C 19,4 C 16,1 C 60 % 1019,5 hPa 0,0 l/m 0 min 0 min 0 W/m 0,0 km/h (0 Bft) 100,00 %
06.06.2023 23:18 20,8 C 19,4 C 16,1 C 59 % 1019,5 hPa 0,0 l/m 0 min 0 min 0 W/m 0,0 km/h (0 Bft) 97,87 %
06.06.2023 23:20 20,8 C 19,4 C 16,1 C 60 % 1019,4 hPa 0,0 l/m 0 min 0 min 0 W/m 0,0 km/h (0 Bft) 100,00 %
06.06.2023 23:22 20,7 C 19,4 C 16,1 C 60 % 1019,4 hPa 0,0 l/m 0 min 0 min 0 W/m 0,0 km/h (0 Bft) 100,00 %
06.06.2023 23:24 20,7 C 19,4 C 16,1 C 60 % 1019,4 hPa 0,0 l/m 0 min 0 min 0 W/m 0,0 km/h (0 Bft) 100,00 %
06.06.2023 23:26 20,6 C 19,4 C 16,1 C 59 % 1019,4 hPa 0,0 l/m 0 min 0 min 0 W/m 3,2 km/h (1 Bft) 100,00 %
06.06.2023 23:28 20,6 C 19,4 C 16,1 C 59 % 1019,4 hPa 0,0 l/m 0 min 0 min 0 W/m 3,2 km/h (1 Bft) 97,87 %
06.06.2023 23:30 20,6 C 19,4 C 16,1 C 59 % 1019,4 hPa 0,0 l/m 0 min 0 min 0 W/m 3,2 km/h (1 Bft) 97,87 %
06.06.2023 23:32 20,6 C 19,4 C 16,1 C 60 % 1019,5 hPa 0,0 l/m 0 min 0 min 0 W/m 3,2 km/h (1 Bft) 95,74 %
06.06.2023 23:34 20,6 C 19,4 C 16,1 C 60 % 1019,5 hPa 0,0 l/m 0 min 0 min 0 W/m 0,0 km/h (0 Bft) 100,00 %
06.06.2023 23:36 20,6 C 19,4 C 16,1 C 61 % 1019,4 hPa 0,0 l/m 0 min 0 min 0 W/m 6,4 km/h (2 Bft) 100,00 %
06.06.2023 23:38 20,6 C 20,0 C 16,1 C 62 % 1019,5 hPa 0,0 l/m 0 min 0 min 0 W/m 6,4 km/h (2 Bft) 97,83 %
06.06.2023 23:40 20,6 C 19,4 C 16,1 C 63 % 1019,4 hPa 0,0 l/m 0 min 0 min 0 W/m 6,4 km/h (2 Bft) 95,74 %
06.06.2023 23:42 20,6 C 19,4 C 16,1 C 63 % 1019,4 hPa 0,0 l/m 0 min 0 min 0 W/m 6,4 km/h (2 Bft) 97,87 %
06.06.2023 23:44 20,6 C 19,4 C 16,1 C 65 % 1019,4 hPa 0,0 l/m 0 min 0 min 0 W/m 6,4 km/h (2 Bft) 97,87 %
06.06.2023 23:46 20,6 C 19,4 C 16,1 C 65 % 1019,4 hPa 0,0 l/m 0 min 0 min 0 W/m 3,2 km/h (1 Bft) 100,00 %
06.06.2023 23:48 20,6 C 19,4 C 16,1 C 66 % 1019,4 hPa 0,0 l/m 0 min 0 min 0 W/m 6,4 km/h (2 Bft) 95,74 %
06.06.2023 23:50 20,6 C 19,4 C 16,1 C 66 % 1019,4 hPa 0,0 l/m 0 min 0 min 0 W/m 6,4 km/h (2 Bft) 98,00 %
06.06.2023 23:52 20,6 C 19,4 C 16,1 C 67 % 1019,4 hPa 0,0 l/m 0 min 0 min 0 W/m 6,4 km/h (2 Bft) 97,87 %
06.06.2023 23:54 20,6 C 19,4 C 16,1 C 67 % 1019,5 hPa 0,0 l/m 0 min 0 min 0 W/m 12,9 km/h (3 Bft) 93,75 %
06.06.2023 23:56 20,6 C 19,4 C 16,1 C 68 % 1019,5 hPa 0,0 l/m 0 min 0 min 0 W/m 9,7 km/h (2 Bft) 95,65 %
06.06.2023 23:58 20,6 C 19,4 C 16,1 C 68 % 1019,5 hPa 0,0 l/m 0 min 0 min 0 W/m 12,9 km/h (3 Bft) 93,62 %
_ Min-Zeit 06:10 05:10 05:10 16:28 18:08 - - - - 21:08 12:36
Minimum _ 12,8 C 12,2 C 8,9 C 42 % 1018,0 hPa - - - - 0,0 km/h (0 Bft) 51,16 %
_ Max-Zeit 16:46 14:30 13:44 05:40 08:55 00:00 07:45 00:00 15:12 11:56 00:00
Maximum _ 27,6 C 32,8 C 30,0 C 89 % 1020,2 hPa 0,0 l/m 5 min 0 min 975 W/m 25,7 km/h
N-NO (4 Bft)
100,00 %
Durchschnitt _ 20,3 C 21,4 C 17,1 C 66 % 1019,3 hPa #0,0 l/m #9:59 h #0 min. 447 W/m 8,6 km/h (2 Bft) 97,90 %
© 2023 W. Hausmann